<?xml version="1.0" encoding="UTF-8" standalone="no" ?>
<gpx xmlns="http://www.topografix.com/GPX/1/1" xmlns:xsi="http://www.w3.org/2001/XMLSchema-instance" xsi:schemaLocation="http://www.topografix.com/GPX/1/1 http://www.topografix.com/GPX/1/1/gpx.xsd" version="1.1" creator="VisuGPX - https://www.visugpx.com">
  <metadata>
    <name>Parcours vtt autour d\\\'Oyeu</name>
    <desc><![CDATA[3 Boucles autour d\\\'oyeu]]></desc>
  </metadata>
  <trk>
    <name><![CDATA[Parcours vtt autour d\\\'Oyeu_1]]></name>
    <trkseg>
      <trkpt lat="45.42575" lon="5.46899">
        <ele>546</ele>
        <time>2011-04-28T13:36:57.460Z</time>
      </trkpt>
      <trkpt lat="45.4258" lon="5.46896">
        <ele>560.5</ele>
        <time>2011-04-28T13:37:04.230Z</time>
      </trkpt>
      <trkpt lat="45.42592" lon="5.4687">
        <ele>608.5</ele>
        <time>2011-04-28T13:37:36.290Z</time>
      </trkpt>
      <trkpt lat="45.4259" lon="5.46873">
        <ele>605</ele>
        <time>2011-04-28T13:37:57.290Z</time>
      </trkpt>
      <trkpt lat="45.4259" lon="5.46869">
        <ele>607</ele>
        <time>2011-04-28T13:38:23.470Z</time>
      </trkpt>
      <trkpt lat="45.42592" lon="5.46871">
        <ele>607.5</ele>
        <time>2011-04-28T13:38:45.450Z</time>
      </trkpt>
      <trkpt lat="45.4257" lon="5.4688">
        <ele>611</ele>
        <time>2011-04-28T13:39:47.480Z</time>
      </trkpt>
      <trkpt lat="45.42564" lon="5.46896">
        <ele>610.5</ele>
        <time>2011-04-28T13:39:54.480Z</time>
      </trkpt>
      <trkpt lat="45.42561" lon="5.46912">
        <ele>610</ele>
        <time>2011-04-28T13:39:59.480Z</time>
      </trkpt>
      <trkpt lat="45.42553" lon="5.4711">
        <ele>605.5</ele>
        <time>2011-04-28T13:40:39.480Z</time>
      </trkpt>
      <trkpt lat="45.42544" lon="5.47123">
        <ele>604.5</ele>
        <time>2011-04-28T13:40:42.480Z</time>
      </trkpt>
      <trkpt lat="45.42529" lon="5.47125">
        <ele>604</ele>
        <time>2011-04-28T13:40:45.480Z</time>
      </trkpt>
      <trkpt lat="45.42375" lon="5.47183">
        <ele>597.5</ele>
        <time>2011-04-28T13:41:10.480Z</time>
      </trkpt>
      <trkpt lat="45.42236" lon="5.4723">
        <ele>599.5</ele>
        <time>2011-04-28T13:41:39.480Z</time>
      </trkpt>
      <trkpt lat="45.42201" lon="5.47249">
        <ele>602</ele>
        <time>2011-04-28T13:41:50.480Z</time>
      </trkpt>
      <trkpt lat="45.42194" lon="5.47261">
        <ele>603</ele>
        <time>2011-04-28T13:41:54.980Z</time>
      </trkpt>
      <trkpt lat="45.42134" lon="5.47295">
        <ele>608</ele>
        <time>2011-04-28T13:42:22.970Z</time>
      </trkpt>
      <trkpt lat="45.42121" lon="5.47286">
        <ele>610.5</ele>
        <time>2011-04-28T13:42:29.980Z</time>
      </trkpt>
      <trkpt lat="45.421" lon="5.47265">
        <ele>612</ele>
        <time>2011-04-28T13:42:40.980Z</time>
      </trkpt>
      <trkpt lat="45.42094" lon="5.47253">
        <ele>611.5</ele>
        <time>2011-04-28T13:42:43.980Z</time>
      </trkpt>
      <trkpt lat="45.42046" lon="5.47113">
        <ele>611</ele>
        <time>2011-04-28T13:43:09.960Z</time>
      </trkpt>
      <trkpt lat="45.42042" lon="5.47113">
        <ele>612.5</ele>
        <time>2011-04-28T13:43:11.960Z</time>
      </trkpt>
      <trkpt lat="45.4201" lon="5.47147">
        <ele>615</ele>
        <time>2011-04-28T13:43:29.970Z</time>
      </trkpt>
      <trkpt lat="45.41975" lon="5.47151">
        <ele>617</ele>
        <time>2011-04-28T13:43:50.960Z</time>
      </trkpt>
      <trkpt lat="45.41952" lon="5.4716">
        <ele>618.5</ele>
        <time>2011-04-28T13:44:05.950Z</time>
      </trkpt>
      <trkpt lat="45.41882" lon="5.4717">
        <ele>623</ele>
        <time>2011-04-28T13:44:54.950Z</time>
      </trkpt>
      <trkpt lat="45.41838" lon="5.47184">
        <ele>625</ele>
        <time>2011-04-28T13:45:21.940Z</time>
      </trkpt>
      <trkpt lat="45.41792" lon="5.47184">
        <ele>627</ele>
        <time>2011-04-28T13:45:48.940Z</time>
      </trkpt>
      <trkpt lat="45.41748" lon="5.47197">
        <ele>629.5</ele>
        <time>2011-04-28T13:46:12.940Z</time>
      </trkpt>
      <trkpt lat="45.41613" lon="5.47207">
        <ele>639</ele>
        <time>2011-04-28T13:47:25.930Z</time>
      </trkpt>
      <trkpt lat="45.41573" lon="5.4722">
        <ele>642.5</ele>
        <time>2011-04-28T13:47:47.930Z</time>
      </trkpt>
      <trkpt lat="45.41534" lon="5.47219">
        <ele>644</ele>
        <time>2011-04-28T13:48:13.930Z</time>
      </trkpt>
      <trkpt lat="45.41533" lon="5.47216">
        <ele>644</ele>
        <time>2011-04-28T13:48:15.930Z</time>
      </trkpt>
      <trkpt lat="45.41591" lon="5.47154">
        <ele>645</ele>
        <time>2011-04-28T13:48:58.930Z</time>
      </trkpt>
      <trkpt lat="45.41606" lon="5.47142">
        <ele>650</ele>
        <time>2011-04-28T13:49:07.920Z</time>
      </trkpt>
      <trkpt lat="45.41614" lon="5.47145">
        <ele>656.5</ele>
        <time>2011-04-28T13:49:12.920Z</time>
      </trkpt>
      <trkpt lat="45.41635" lon="5.47139">
        <ele>666</ele>
        <time>2011-04-28T13:49:26.920Z</time>
      </trkpt>
      <trkpt lat="45.41648" lon="5.47128">
        <ele>664</ele>
        <time>2011-04-28T13:49:35.920Z</time>
      </trkpt>
      <trkpt lat="45.41658" lon="5.47126">
        <ele>668.5</ele>
        <time>2011-04-28T13:49:40.920Z</time>
      </trkpt>
      <trkpt lat="45.41667" lon="5.47118">
        <ele>669.5</ele>
        <time>2011-04-28T13:49:46.920Z</time>
      </trkpt>
      <trkpt lat="45.4169" lon="5.47113">
        <ele>675.5</ele>
        <time>2011-04-28T13:49:58.910Z</time>
      </trkpt>
      <trkpt lat="45.41694" lon="5.47109">
        <ele>674</ele>
        <time>2011-04-28T13:50:00.920Z</time>
      </trkpt>
      <trkpt lat="45.4172" lon="5.47101">
        <ele>691</ele>
        <time>2011-04-28T13:50:11.920Z</time>
      </trkpt>
      <trkpt lat="45.41721" lon="5.47098">
        <ele>690.5</ele>
        <time>2011-04-28T13:50:12.920Z</time>
      </trkpt>
      <trkpt lat="45.41737" lon="5.47089">
        <ele>693.5</ele>
        <time>2011-04-28T13:50:20.920Z</time>
      </trkpt>
      <trkpt lat="45.41739" lon="5.47091">
        <ele>694</ele>
        <time>2011-04-28T13:50:21.920Z</time>
      </trkpt>
      <trkpt lat="45.41752" lon="5.4708">
        <ele>697.5</ele>
        <time>2011-04-28T13:50:29.920Z</time>
      </trkpt>
      <trkpt lat="45.41772" lon="5.47073">
        <ele>705.5</ele>
        <time>2011-04-28T13:50:41.910Z</time>
      </trkpt>
      <trkpt lat="45.41784" lon="5.47065">
        <ele>704</ele>
        <time>2011-04-28T13:50:48.910Z</time>
      </trkpt>
      <trkpt lat="45.41786" lon="5.47067">
        <ele>707.5</ele>
        <time>2011-04-28T13:50:50.910Z</time>
      </trkpt>
      <trkpt lat="45.41804" lon="5.4706">
        <ele>716</ele>
        <time>2011-04-28T13:51:01.910Z</time>
      </trkpt>
      <trkpt lat="45.41828" lon="5.4704">
        <ele>717</ele>
        <time>2011-04-28T13:51:13.910Z</time>
      </trkpt>
      <trkpt lat="45.41841" lon="5.47018">
        <ele>710</ele>
        <time>2011-04-28T13:51:20.910Z</time>
      </trkpt>
      <trkpt lat="45.41843" lon="5.47007">
        <ele>712</ele>
        <time>2011-04-28T13:51:24.910Z</time>
      </trkpt>
      <trkpt lat="45.41838" lon="5.46972">
        <ele>711.5</ele>
        <time>2011-04-28T13:51:39.910Z</time>
      </trkpt>
      <trkpt lat="45.41828" lon="5.46939">
        <ele>721.5</ele>
        <time>2011-04-28T13:51:56.910Z</time>
      </trkpt>
      <trkpt lat="45.41817" lon="5.46924">
        <ele>725</ele>
        <time>2011-04-28T13:52:05.910Z</time>
      </trkpt>
      <trkpt lat="45.41806" lon="5.46914">
        <ele>728.5</ele>
        <time>2011-04-28T13:52:16.900Z</time>
      </trkpt>
      <trkpt lat="45.41804" lon="5.46915">
        <ele>729.5</ele>
        <time>2011-04-28T13:52:17.900Z</time>
      </trkpt>
      <trkpt lat="45.41784" lon="5.46899">
        <ele>742</ele>
        <time>2011-04-28T13:52:31.900Z</time>
      </trkpt>
      <trkpt lat="45.4177" lon="5.46895">
        <ele>742.5</ele>
        <time>2011-04-28T13:52:40.910Z</time>
      </trkpt>
      <trkpt lat="45.41722" lon="5.46853">
        <ele>765.5</ele>
        <time>2011-04-28T13:53:13.900Z</time>
      </trkpt>
      <trkpt lat="45.41712" lon="5.46836">
        <ele>769</ele>
        <time>2011-04-28T13:53:20.900Z</time>
      </trkpt>
      <trkpt lat="45.4171" lon="5.46837">
        <ele>770.5</ele>
        <time>2011-04-28T13:53:21.900Z</time>
      </trkpt>
      <trkpt lat="45.41703" lon="5.4682">
        <ele>777</ele>
        <time>2011-04-28T13:53:29.900Z</time>
      </trkpt>
      <trkpt lat="45.41699" lon="5.46787">
        <ele>780.5</ele>
        <time>2011-04-28T13:53:47.900Z</time>
      </trkpt>
      <trkpt lat="45.41691" lon="5.46778">
        <ele>777.5</ele>
        <time>2011-04-28T13:53:54.900Z</time>
      </trkpt>
      <trkpt lat="45.41683" lon="5.46781">
        <ele>773.5</ele>
        <time>2011-04-28T13:54:00.900Z</time>
      </trkpt>
      <trkpt lat="45.41678" lon="5.46779">
        <ele>761</ele>
        <time>2011-04-28T13:54:03.900Z</time>
      </trkpt>
      <trkpt lat="45.41669" lon="5.46789">
        <ele>755.5</ele>
        <time>2011-04-28T13:54:14.890Z</time>
      </trkpt>
      <trkpt lat="45.41666" lon="5.46822">
        <ele>745.5</ele>
        <time>2011-04-28T13:54:36.890Z</time>
      </trkpt>
      <trkpt lat="45.41682" lon="5.46869">
        <ele>727.5</ele>
        <time>2011-04-28T13:54:57.890Z</time>
      </trkpt>
      <trkpt lat="45.41719" lon="5.46943">
        <ele>714</ele>
        <time>2011-04-28T13:55:30.890Z</time>
      </trkpt>
      <trkpt lat="45.41717" lon="5.46953">
        <ele>714.5</ele>
        <time>2011-04-28T13:55:34.890Z</time>
      </trkpt>
      <trkpt lat="45.41705" lon="5.46957">
        <ele>721</ele>
        <time>2011-04-28T13:55:41.890Z</time>
      </trkpt>
      <trkpt lat="45.41683" lon="5.46956">
        <ele>731.5</ele>
        <time>2011-04-28T13:55:53.880Z</time>
      </trkpt>
      <trkpt lat="45.41649" lon="5.46965">
        <ele>739</ele>
        <time>2011-04-28T13:56:12.890Z</time>
      </trkpt>
      <trkpt lat="45.41603" lon="5.46966">
        <ele>744.5</ele>
        <time>2011-04-28T13:56:33.880Z</time>
      </trkpt>
      <trkpt lat="45.41577" lon="5.46961">
        <ele>744.5</ele>
        <time>2011-04-28T13:56:47.880Z</time>
      </trkpt>
      <trkpt lat="45.41553" lon="5.46969">
        <ele>748.5</ele>
        <time>2011-04-28T13:56:58.870Z</time>
      </trkpt>
      <trkpt lat="45.41531" lon="5.46984">
        <ele>753.5</ele>
        <time>2011-04-28T13:57:08.890Z</time>
      </trkpt>
      <trkpt lat="45.41486" lon="5.47024">
        <ele>755</ele>
        <time>2011-04-28T13:57:26.880Z</time>
      </trkpt>
      <trkpt lat="45.41445" lon="5.47047">
        <ele>755.5</ele>
        <time>2011-04-28T13:57:40.880Z</time>
      </trkpt>
      <trkpt lat="45.41386" lon="5.47062">
        <ele>754</ele>
        <time>2011-04-28T13:58:02.880Z</time>
      </trkpt>
      <trkpt lat="45.41359" lon="5.47074">
        <ele>758</ele>
        <time>2011-04-28T13:58:12.880Z</time>
      </trkpt>
      <trkpt lat="45.41265" lon="5.47133">
        <ele>759</ele>
        <time>2011-04-28T13:58:40.870Z</time>
      </trkpt>
      <trkpt lat="45.41245" lon="5.47152">
        <ele>760</ele>
        <time>2011-04-28T13:58:46.870Z</time>
      </trkpt>
      <trkpt lat="45.41219" lon="5.47169">
        <ele>760.5</ele>
        <time>2011-04-28T13:58:55.880Z</time>
      </trkpt>
      <trkpt lat="45.41199" lon="5.47198">
        <ele>760.5</ele>
        <time>2011-04-28T13:59:02.880Z</time>
      </trkpt>
      <trkpt lat="45.41194" lon="5.47202">
        <ele>760.5</ele>
        <time>2011-04-28T13:59:03.870Z</time>
      </trkpt>
      <trkpt lat="45.41179" lon="5.4723">
        <ele>764</ele>
        <time>2011-04-28T13:59:08.870Z</time>
      </trkpt>
      <trkpt lat="45.41177" lon="5.4728">
        <ele>764</ele>
        <time>2011-04-28T13:59:14.870Z</time>
      </trkpt>
      <trkpt lat="45.41173" lon="5.473">
        <ele>763</ele>
        <time>2011-04-28T13:59:16.880Z</time>
      </trkpt>
      <trkpt lat="45.41172" lon="5.47337">
        <ele>761.5</ele>
        <time>2011-04-28T13:59:19.880Z</time>
      </trkpt>
      <trkpt lat="45.41166" lon="5.47362">
        <ele>760.5</ele>
        <time>2011-04-28T13:59:21.880Z</time>
      </trkpt>
      <trkpt lat="45.41154" lon="5.47393">
        <ele>759</ele>
        <time>2011-04-28T13:59:24.870Z</time>
      </trkpt>
      <trkpt lat="45.41144" lon="5.47433">
        <ele>757.5</ele>
        <time>2011-04-28T13:59:29.880Z</time>
      </trkpt>
      <trkpt lat="45.41141" lon="5.47451">
        <ele>756.5</ele>
        <time>2011-04-28T13:59:32.880Z</time>
      </trkpt>
      <trkpt lat="45.41141" lon="5.47494">
        <ele>752</ele>
        <time>2011-04-28T13:59:43.880Z</time>
      </trkpt>
      <trkpt lat="45.41134" lon="5.47545">
        <ele>745</ele>
        <time>2011-04-28T14:00:01.870Z</time>
      </trkpt>
      <trkpt lat="45.41138" lon="5.47621">
        <ele>746.5</ele>
        <time>2011-04-28T14:00:29.870Z</time>
      </trkpt>
      <trkpt lat="45.41134" lon="5.47656">
        <ele>752</ele>
        <time>2011-04-28T14:00:42.870Z</time>
      </trkpt>
      <trkpt lat="45.41126" lon="5.47694">
        <ele>758.5</ele>
        <time>2011-04-28T14:00:56.870Z</time>
      </trkpt>
      <trkpt lat="45.41077" lon="5.47807">
        <ele>778</ele>
        <time>2011-04-28T14:01:46.860Z</time>
      </trkpt>
      <trkpt lat="45.41064" lon="5.47823">
        <ele>780.5</ele>
        <time>2011-04-28T14:01:55.860Z</time>
      </trkpt>
      <trkpt lat="45.41044" lon="5.47858">
        <ele>777.5</ele>
        <time>2011-04-28T14:02:11.850Z</time>
      </trkpt>
      <trkpt lat="45.40992" lon="5.47971">
        <ele>785</ele>
        <time>2011-04-28T14:02:58.860Z</time>
      </trkpt>
      <trkpt lat="45.40987" lon="5.47985">
        <ele>784</ele>
        <time>2011-04-28T14:03:04.850Z</time>
      </trkpt>
      <trkpt lat="45.40979" lon="5.47996">
        <ele>786</ele>
        <time>2011-04-28T14:03:10.850Z</time>
      </trkpt>
      <trkpt lat="45.40955" lon="5.48044">
        <ele>790.5</ele>
        <time>2011-04-28T14:03:36.850Z</time>
      </trkpt>
      <trkpt lat="45.40948" lon="5.48065">
        <ele>795</ele>
        <time>2011-04-28T14:03:48.850Z</time>
      </trkpt>
      <trkpt lat="45.40949" lon="5.48081">
        <ele>795.5</ele>
        <time>2011-04-28T14:03:56.840Z</time>
      </trkpt>
      <trkpt lat="45.40962" lon="5.48092">
        <ele>800</ele>
        <time>2011-04-28T14:04:08.850Z</time>
      </trkpt>
      <trkpt lat="45.40984" lon="5.48103">
        <ele>804</ele>
        <time>2011-04-28T14:04:25.840Z</time>
      </trkpt>
      <trkpt lat="45.40993" lon="5.48112">
        <ele>801.5</ele>
        <time>2011-04-28T14:04:30.850Z</time>
      </trkpt>
      <trkpt lat="45.41021" lon="5.48112">
        <ele>793</ele>
        <time>2011-04-28T14:04:40.850Z</time>
      </trkpt>
      <trkpt lat="45.41038" lon="5.48106">
        <ele>791</ele>
        <time>2011-04-28T14:04:43.850Z</time>
      </trkpt>
      <trkpt lat="45.41046" lon="5.48099">
        <ele>791</ele>
        <time>2011-04-28T14:04:45.850Z</time>
      </trkpt>
      <trkpt lat="45.41068" lon="5.48102">
        <ele>793</ele>
        <time>2011-04-28T14:04:48.840Z</time>
      </trkpt>
      <trkpt lat="45.41107" lon="5.48089">
        <ele>795.5</ele>
        <time>2011-04-28T14:04:54.850Z</time>
      </trkpt>
      <trkpt lat="45.41121" lon="5.48077">
        <ele>790.5</ele>
        <time>2011-04-28T14:04:57.840Z</time>
      </trkpt>
      <trkpt lat="45.41155" lon="5.48032">
        <ele>784.5</ele>
        <time>2011-04-28T14:05:09.830Z</time>
      </trkpt>
      <trkpt lat="45.41161" lon="5.48018">
        <ele>784</ele>
        <time>2011-04-28T14:05:13.830Z</time>
      </trkpt>
      <trkpt lat="45.41172" lon="5.48006">
        <ele>778.5</ele>
        <time>2011-04-28T14:05:18.840Z</time>
      </trkpt>
      <trkpt lat="45.41184" lon="5.47982">
        <ele>777.5</ele>
        <time>2011-04-28T14:05:26.830Z</time>
      </trkpt>
      <trkpt lat="45.41194" lon="5.47954">
        <ele>774.5</ele>
        <time>2011-04-28T14:05:33.840Z</time>
      </trkpt>
      <trkpt lat="45.41206" lon="5.47952">
        <ele>775</ele>
        <time>2011-04-28T14:05:36.840Z</time>
      </trkpt>
      <trkpt lat="45.41245" lon="5.47976">
        <ele>783</ele>
        <time>2011-04-28T14:05:48.840Z</time>
      </trkpt>
      <trkpt lat="45.41272" lon="5.4802">
        <ele>785</ele>
        <time>2011-04-28T14:06:01.830Z</time>
      </trkpt>
      <trkpt lat="45.41296" lon="5.48078">
        <ele>784.5</ele>
        <time>2011-04-28T14:06:24.840Z</time>
      </trkpt>
      <trkpt lat="45.41304" lon="5.4809">
        <ele>785</ele>
        <time>2011-04-28T14:06:30.830Z</time>
      </trkpt>
      <trkpt lat="45.41315" lon="5.4812">
        <ele>788</ele>
        <time>2011-04-28T14:06:44.820Z</time>
      </trkpt>
      <trkpt lat="45.41317" lon="5.48134">
        <ele>785.5</ele>
        <time>2011-04-28T14:06:49.840Z</time>
      </trkpt>
      <trkpt lat="45.41316" lon="5.48144">
        <ele>787</ele>
        <time>2011-04-28T14:06:53.820Z</time>
      </trkpt>
      <trkpt lat="45.41318" lon="5.48155">
        <ele>787</ele>
        <time>2011-04-28T14:06:57.830Z</time>
      </trkpt>
      <trkpt lat="45.41341" lon="5.48168">
        <ele>785.5</ele>
        <time>2011-04-28T14:07:11.820Z</time>
      </trkpt>
      <trkpt lat="45.41349" lon="5.48164">
        <ele>785.5</ele>
        <time>2011-04-28T14:07:16.820Z</time>
      </trkpt>
      <trkpt lat="45.41349" lon="5.48161">
        <ele>787</ele>
        <time>2011-04-28T14:07:17.830Z</time>
      </trkpt>
      <trkpt lat="45.41373" lon="5.48136">
        <ele>788</ele>
        <time>2011-04-28T14:07:28.820Z</time>
      </trkpt>
      <trkpt lat="45.41388" lon="5.48127">
        <ele>788.5</ele>
        <time>2011-04-28T14:07:33.830Z</time>
      </trkpt>
      <trkpt lat="45.41394" lon="5.4812">
        <ele>790</ele>
        <time>2011-04-28T14:07:35.830Z</time>
      </trkpt>
      <trkpt lat="45.41412" lon="5.48112">
        <ele>784.5</ele>
        <time>2011-04-28T14:07:40.830Z</time>
      </trkpt>
      <trkpt lat="45.41416" lon="5.48116">
        <ele>783.5</ele>
        <time>2011-04-28T14:07:42.820Z</time>
      </trkpt>
      <trkpt lat="45.41424" lon="5.48177">
        <ele>780</ele>
        <time>2011-04-28T14:07:53.830Z</time>
      </trkpt>
      <trkpt lat="45.41423" lon="5.48185">
        <ele>783</ele>
        <time>2011-04-28T14:07:55.830Z</time>
      </trkpt>
      <trkpt lat="45.41431" lon="5.48226">
        <ele>783.5</ele>
        <time>2011-04-28T14:08:02.820Z</time>
      </trkpt>
      <trkpt lat="45.41433" lon="5.48231">
        <ele>783</ele>
        <time>2011-04-28T14:08:03.820Z</time>
      </trkpt>
      <trkpt lat="45.41444" lon="5.48277">
        <ele>783</ele>
        <time>2011-04-28T14:08:12.820Z</time>
      </trkpt>
      <trkpt lat="45.41459" lon="5.48322">
        <ele>777</ele>
        <time>2011-04-28T14:08:21.820Z</time>
      </trkpt>
      <trkpt lat="45.41488" lon="5.48343">
        <ele>771</ele>
        <time>2011-04-28T14:08:27.820Z</time>
      </trkpt>
      <trkpt lat="45.41498" lon="5.48369">
        <ele>769.5</ele>
        <time>2011-04-28T14:08:31.820Z</time>
      </trkpt>
      <trkpt lat="45.41501" lon="5.48402">
        <ele>768.5</ele>
        <time>2011-04-28T14:08:36.820Z</time>
      </trkpt>
      <trkpt lat="45.41498" lon="5.48414">
        <ele>767</ele>
        <time>2011-04-28T14:08:38.810Z</time>
      </trkpt>
      <trkpt lat="45.41487" lon="5.4843">
        <ele>765.5</ele>
        <time>2011-04-28T14:08:42.810Z</time>
      </trkpt>
      <trkpt lat="45.41449" lon="5.48458">
        <ele>767</ele>
        <time>2011-04-28T14:08:52.820Z</time>
      </trkpt>
      <trkpt lat="45.41424" lon="5.48467">
        <ele>770.5</ele>
        <time>2011-04-28T14:08:57.820Z</time>
      </trkpt>
      <trkpt lat="45.41411" lon="5.48461">
        <ele>774</ele>
        <time>2011-04-28T14:09:02.810Z</time>
      </trkpt>
      <trkpt lat="45.41363" lon="5.48472">
        <ele>776.5</ele>
        <time>2011-04-28T14:09:20.810Z</time>
      </trkpt>
      <trkpt lat="45.41315" lon="5.48491">
        <ele>780.5</ele>
        <time>2011-04-28T14:09:38.810Z</time>
      </trkpt>
      <trkpt lat="45.41232" lon="5.48555">
        <ele>791</ele>
        <time>2011-04-28T14:10:04.810Z</time>
      </trkpt>
      <trkpt lat="45.41223" lon="5.4857">
        <ele>794.5</ele>
        <time>2011-04-28T14:10:11.800Z</time>
      </trkpt>
      <trkpt lat="45.41183" lon="5.48606">
        <ele>796.5</ele>
        <time>2011-04-28T14:10:36.800Z</time>
      </trkpt>
      <trkpt lat="45.41174" lon="5.48619">
        <ele>798</ele>
        <time>2011-04-28T14:10:43.810Z</time>
      </trkpt>
      <trkpt lat="45.41166" lon="5.48671">
        <ele>803</ele>
        <time>2011-04-28T14:10:59.810Z</time>
      </trkpt>
      <trkpt lat="45.41167" lon="5.48685">
        <ele>803.5</ele>
        <time>2011-04-28T14:11:03.810Z</time>
      </trkpt>
      <trkpt lat="45.41163" lon="5.48733">
        <ele>803.5</ele>
        <time>2011-04-28T14:11:17.810Z</time>
      </trkpt>
      <trkpt lat="45.41167" lon="5.48756">
        <ele>803.5</ele>
        <time>2011-04-28T14:11:23.790Z</time>
      </trkpt>
      <trkpt lat="45.41166" lon="5.48775">
        <ele>802</ele>
        <time>2011-04-28T14:11:27.810Z</time>
      </trkpt>
      <trkpt lat="45.41149" lon="5.48827">
        <ele>803</ele>
        <time>2011-04-28T14:11:39.810Z</time>
      </trkpt>
      <trkpt lat="45.4115" lon="5.4883">
        <ele>803.5</ele>
        <time>2011-04-28T14:11:40.800Z</time>
      </trkpt>
      <trkpt lat="45.41137" lon="5.48857">
        <ele>808.5</ele>
        <time>2011-04-28T14:11:48.800Z</time>
      </trkpt>
      <trkpt lat="45.41136" lon="5.48863">
        <ele>808.5</ele>
        <time>2011-04-28T14:11:50.790Z</time>
      </trkpt>
      <trkpt lat="45.41117" lon="5.48916">
        <ele>813</ele>
        <time>2011-04-28T14:12:05.800Z</time>
      </trkpt>
      <trkpt lat="45.41118" lon="5.48921">
        <ele>814.5</ele>
        <time>2011-04-28T14:12:06.800Z</time>
      </trkpt>
      <trkpt lat="45.41115" lon="5.4894">
        <ele>816.5</ele>
        <time>2011-04-28T14:12:10.800Z</time>
      </trkpt>
      <trkpt lat="45.41105" lon="5.48964">
        <ele>817.5</ele>
        <time>2011-04-28T14:12:14.790Z</time>
      </trkpt>
      <trkpt lat="45.41096" lon="5.48971">
        <ele>816</ele>
        <time>2011-04-28T14:12:16.800Z</time>
      </trkpt>
      <trkpt lat="45.41065" lon="5.49017">
        <ele>811.5</ele>
        <time>2011-04-28T14:12:23.800Z</time>
      </trkpt>
      <trkpt lat="45.41068" lon="5.49031">
        <ele>808</ele>
        <time>2011-04-28T14:12:25.820Z</time>
      </trkpt>
      <trkpt lat="45.41077" lon="5.49037">
        <ele>806</ele>
        <time>2011-04-28T14:12:27.790Z</time>
      </trkpt>
      <trkpt lat="45.4111" lon="5.49044">
        <ele>801</ele>
        <time>2011-04-28T14:12:31.790Z</time>
      </trkpt>
      <trkpt lat="45.41159" lon="5.49048">
        <ele>792</ele>
        <time>2011-04-28T14:12:37.790Z</time>
      </trkpt>
      <trkpt lat="45.41181" lon="5.49056">
        <ele>785.5</ele>
        <time>2011-04-28T14:12:40.800Z</time>
      </trkpt>
      <trkpt lat="45.41229" lon="5.49042">
        <ele>775</ele>
        <time>2011-04-28T14:12:46.800Z</time>
      </trkpt>
      <trkpt lat="45.41248" lon="5.49025">
        <ele>772</ele>
        <time>2011-04-28T14:12:49.810Z</time>
      </trkpt>
      <trkpt lat="45.41283" lon="5.49009">
        <ele>765</ele>
        <time>2011-04-28T14:12:55.800Z</time>
      </trkpt>
      <trkpt lat="45.41291" lon="5.49002">
        <ele>763</ele>
        <time>2011-04-28T14:12:57.800Z</time>
      </trkpt>
      <trkpt lat="45.41294" lon="5.48989">
        <ele>764</ele>
        <time>2011-04-28T14:13:00.790Z</time>
      </trkpt>
      <trkpt lat="45.41293" lon="5.48964">
        <ele>761</ele>
        <time>2011-04-28T14:13:08.800Z</time>
      </trkpt>
      <trkpt lat="45.41298" lon="5.48952">
        <ele>757</ele>
        <time>2011-04-28T14:13:12.790Z</time>
      </trkpt>
      <trkpt lat="45.41304" lon="5.48952">
        <ele>757</ele>
        <time>2011-04-28T14:13:15.790Z</time>
      </trkpt>
      <trkpt lat="45.41324" lon="5.48965">
        <ele>751.5</ele>
        <time>2011-04-28T14:13:24.790Z</time>
      </trkpt>
      <trkpt lat="45.41332" lon="5.48966">
        <ele>752.5</ele>
        <time>2011-04-28T14:13:28.800Z</time>
      </trkpt>
      <trkpt lat="45.41349" lon="5.48977">
        <ele>747</ele>
        <time>2011-04-28T14:13:35.790Z</time>
      </trkpt>
      <trkpt lat="45.41363" lon="5.48979">
        <ele>750</ele>
        <time>2011-04-28T14:13:41.790Z</time>
      </trkpt>
      <trkpt lat="45.41381" lon="5.48989">
        <ele>745</ele>
        <time>2011-04-28T14:13:45.790Z</time>
      </trkpt>
      <trkpt lat="45.41398" lon="5.48994">
        <ele>742</ele>
        <time>2011-04-28T14:13:49.800Z</time>
      </trkpt>
      <trkpt lat="45.41452" lon="5.49035">
        <ele>730.5</ele>
        <time>2011-04-28T14:13:59.790Z</time>
      </trkpt>
      <trkpt lat="45.41525" lon="5.49122">
        <ele>709</ele>
        <time>2011-04-28T14:14:14.780Z</time>
      </trkpt>
      <trkpt lat="45.41537" lon="5.4914">
        <ele>704.5</ele>
        <time>2011-04-28T14:14:17.780Z</time>
      </trkpt>
      <trkpt lat="45.41552" lon="5.49174">
        <ele>700</ele>
        <time>2011-04-28T14:14:24.780Z</time>
      </trkpt>
      <trkpt lat="45.41572" lon="5.49231">
        <ele>695</ele>
        <time>2011-04-28T14:14:36.790Z</time>
      </trkpt>
      <trkpt lat="45.41581" lon="5.49248">
        <ele>694.5</ele>
        <time>2011-04-28T14:15:00.780Z</time>
      </trkpt>
      <trkpt lat="45.41629" lon="5.49208">
        <ele>696</ele>
        <time>2011-04-28T14:15:34.770Z</time>
      </trkpt>
      <trkpt lat="45.4165" lon="5.49186">
        <ele>697.5</ele>
        <time>2011-04-28T14:15:47.770Z</time>
      </trkpt>
      <trkpt lat="45.41663" lon="5.49161">
        <ele>699.5</ele>
        <time>2011-04-28T14:15:58.770Z</time>
      </trkpt>
      <trkpt lat="45.41694" lon="5.49119">
        <ele>702.5</ele>
        <time>2011-04-28T14:16:20.770Z</time>
      </trkpt>
      <trkpt lat="45.41708" lon="5.49105">
        <ele>705</ele>
        <time>2011-04-28T14:16:29.770Z</time>
      </trkpt>
      <trkpt lat="45.41722" lon="5.49084">
        <ele>709.5</ele>
        <time>2011-04-28T14:16:41.760Z</time>
      </trkpt>
      <trkpt lat="45.41745" lon="5.4904">
        <ele>713</ele>
        <time>2011-04-28T14:17:00.760Z</time>
      </trkpt>
      <trkpt lat="45.41765" lon="5.49008">
        <ele>714.5</ele>
        <time>2011-04-28T14:17:15.760Z</time>
      </trkpt>
      <trkpt lat="45.41775" lon="5.48986">
        <ele>713</ele>
        <time>2011-04-28T14:17:21.780Z</time>
      </trkpt>
      <trkpt lat="45.41786" lon="5.48971">
        <ele>710.5</ele>
        <time>2011-04-28T14:17:25.760Z</time>
      </trkpt>
      <trkpt lat="45.41797" lon="5.48962">
        <ele>707</ele>
        <time>2011-04-28T14:17:28.770Z</time>
      </trkpt>
      <trkpt lat="45.41847" lon="5.48944">
        <ele>700.5</ele>
        <time>2011-04-28T14:17:35.770Z</time>
      </trkpt>
      <trkpt lat="45.41887" lon="5.48943">
        <ele>700.5</ele>
        <time>2011-04-28T14:17:41.760Z</time>
      </trkpt>
      <trkpt lat="45.41896" lon="5.48936">
        <ele>701</ele>
        <time>2011-04-28T14:17:44.760Z</time>
      </trkpt>
      <trkpt lat="45.41903" lon="5.4892">
        <ele>703.5</ele>
        <time>2011-04-28T14:17:51.760Z</time>
      </trkpt>
      <trkpt lat="45.41911" lon="5.48883">
        <ele>709</ele>
        <time>2011-04-28T14:18:05.760Z</time>
      </trkpt>
      <trkpt lat="45.41908" lon="5.48818">
        <ele>711.5</ele>
        <time>2011-04-28T14:18:20.760Z</time>
      </trkpt>
      <trkpt lat="45.41912" lon="5.48769">
        <ele>710.5</ele>
        <time>2011-04-28T14:18:27.760Z</time>
      </trkpt>
      <trkpt lat="45.4192" lon="5.4874">
        <ele>711.5</ele>
        <time>2011-04-28T14:18:33.760Z</time>
      </trkpt>
      <trkpt lat="45.41969" lon="5.48637">
        <ele>705</ele>
        <time>2011-04-28T14:18:57.750Z</time>
      </trkpt>
      <trkpt lat="45.41986" lon="5.48587">
        <ele>698</ele>
        <time>2011-04-28T14:19:05.750Z</time>
      </trkpt>
      <trkpt lat="45.41995" lon="5.48551">
        <ele>694.5</ele>
        <time>2011-04-28T14:19:10.750Z</time>
      </trkpt>
      <trkpt lat="45.42006" lon="5.48461">
        <ele>682.5</ele>
        <time>2011-04-28T14:19:24.750Z</time>
      </trkpt>
      <trkpt lat="45.42003" lon="5.48427">
        <ele>679.5</ele>
        <time>2011-04-28T14:19:28.750Z</time>
      </trkpt>
      <trkpt lat="45.42029" lon="5.48342">
        <ele>669.5</ele>
        <time>2011-04-28T14:19:38.750Z</time>
      </trkpt>
      <trkpt lat="45.42056" lon="5.48239">
        <ele>659.5</ele>
        <time>2011-04-28T14:19:47.750Z</time>
      </trkpt>
      <trkpt lat="45.4206" lon="5.48117">
        <ele>652</ele>
        <time>2011-04-28T14:19:57.750Z</time>
      </trkpt>
      <trkpt lat="45.42073" lon="5.48047">
        <ele>651</ele>
        <time>2011-04-28T14:20:03.750Z</time>
      </trkpt>
      <trkpt lat="45.42088" lon="5.48014">
        <ele>647.5</ele>
        <time>2011-04-28T14:20:07.750Z</time>
      </trkpt>
      <trkpt lat="45.42125" lon="5.47968">
        <ele>639</ele>
        <time>2011-04-28T14:20:13.740Z</time>
      </trkpt>
      <trkpt lat="45.4217" lon="5.47902">
        <ele>635</ele>
        <time>2011-04-28T14:20:21.750Z</time>
      </trkpt>
      <trkpt lat="45.42217" lon="5.47867">
        <ele>630</ele>
        <time>2011-04-28T14:20:30.740Z</time>
      </trkpt>
      <trkpt lat="45.42274" lon="5.47833">
        <ele>623</ele>
        <time>2011-04-28T14:20:46.740Z</time>
      </trkpt>
      <trkpt lat="45.42272" lon="5.47826">
        <ele>621.5</ele>
        <time>2011-04-28T14:20:52.740Z</time>
      </trkpt>
      <trkpt lat="45.42275" lon="5.47819">
        <ele>619</ele>
        <time>2011-04-28T14:20:56.740Z</time>
      </trkpt>
      <trkpt lat="45.4225" lon="5.47647">
        <ele>613</ele>
        <time>2011-04-28T14:21:29.740Z</time>
      </trkpt>
      <trkpt lat="45.42234" lon="5.47567">
        <ele>612</ele>
        <time>2011-04-28T14:21:41.740Z</time>
      </trkpt>
      <trkpt lat="45.42223" lon="5.47452">
        <ele>607</ele>
        <time>2011-04-28T14:21:56.740Z</time>
      </trkpt>
      <trkpt lat="45.42213" lon="5.47395">
        <ele>605</ele>
        <time>2011-04-28T14:22:02.740Z</time>
      </trkpt>
      <trkpt lat="45.42199" lon="5.47297">
        <ele>602</ele>
        <time>2011-04-28T14:22:12.730Z</time>
      </trkpt>
      <trkpt lat="45.42198" lon="5.47265">
        <ele>601</ele>
        <time>2011-04-28T14:22:16.730Z</time>
      </trkpt>
      <trkpt lat="45.42201" lon="5.47252">
        <ele>600</ele>
        <time>2011-04-28T14:22:18.740Z</time>
      </trkpt>
      <trkpt lat="45.42236" lon="5.47232">
        <ele>598.5</ele>
        <time>2011-04-28T14:22:25.730Z</time>
      </trkpt>
      <trkpt lat="45.4249" lon="5.47138">
        <ele>600.5</ele>
        <time>2011-04-28T14:23:21.730Z</time>
      </trkpt>
      <trkpt lat="45.4253" lon="5.47127">
        <ele>602</ele>
        <time>2011-04-28T14:23:32.730Z</time>
      </trkpt>
      <trkpt lat="45.42549" lon="5.47128">
        <ele>604</ele>
        <time>2011-04-28T14:23:37.730Z</time>
      </trkpt>
      <trkpt lat="45.42589" lon="5.47158">
        <ele>604.5</ele>
        <time>2011-04-28T14:23:49.730Z</time>
      </trkpt>
      <trkpt lat="45.42651" lon="5.47182">
        <ele>605.5</ele>
        <time>2011-04-28T14:24:08.730Z</time>
      </trkpt>
      <trkpt lat="45.42662" lon="5.47181">
        <ele>605.5</ele>
        <time>2011-04-28T14:24:11.730Z</time>
      </trkpt>
      <trkpt lat="45.42676" lon="5.47172">
        <ele>606</ele>
        <time>2011-04-28T14:24:15.720Z</time>
      </trkpt>
      <trkpt lat="45.42759" lon="5.47164">
        <ele>608</ele>
        <time>2011-04-28T14:24:37.720Z</time>
      </trkpt>
      <trkpt lat="45.42795" lon="5.47153">
        <ele>609.5</ele>
        <time>2011-04-28T14:24:47.720Z</time>
      </trkpt>
      <trkpt lat="45.42851" lon="5.47119">
        <ele>612.5</ele>
        <time>2011-04-28T14:25:04.720Z</time>
      </trkpt>
      <trkpt lat="45.42916" lon="5.47152">
        <ele>613</ele>
        <time>2011-04-28T14:25:23.720Z</time>
      </trkpt>
      <trkpt lat="45.42974" lon="5.47178">
        <ele>614.5</ele>
        <time>2011-04-28T14:25:40.720Z</time>
      </trkpt>
      <trkpt lat="45.43068" lon="5.47231">
        <ele>615.5</ele>
        <time>2011-04-28T14:26:07.720Z</time>
      </trkpt>
      <trkpt lat="45.43125" lon="5.47251">
        <ele>618</ele>
        <time>2011-04-28T14:26:26.710Z</time>
      </trkpt>
      <trkpt lat="45.43163" lon="5.47257">
        <ele>619</ele>
        <time>2011-04-28T14:26:38.710Z</time>
      </trkpt>
      <trkpt lat="45.43185" lon="5.47267">
        <ele>620</ele>
        <time>2011-04-28T14:26:45.710Z</time>
      </trkpt>
      <trkpt lat="45.43246" lon="5.47335">
        <ele>622.5</ele>
        <time>2011-04-28T14:27:08.710Z</time>
      </trkpt>
      <trkpt lat="45.43373" lon="5.47467">
        <ele>627.5</ele>
        <time>2011-04-28T14:27:56.710Z</time>
      </trkpt>
      <trkpt lat="45.43398" lon="5.47485">
        <ele>629</ele>
        <time>2011-04-28T14:28:05.710Z</time>
      </trkpt>
      <trkpt lat="45.43473" lon="5.47518">
        <ele>631</ele>
        <time>2011-04-28T14:28:29.700Z</time>
      </trkpt>
      <trkpt lat="45.43489" lon="5.47522">
        <ele>631</ele>
        <time>2011-04-28T14:28:34.700Z</time>
      </trkpt>
      <trkpt lat="45.43558" lon="5.47607">
        <ele>634</ele>
        <time>2011-04-28T14:29:03.700Z</time>
      </trkpt>
      <trkpt lat="45.43633" lon="5.4772">
        <ele>636.5</ele>
        <time>2011-04-28T14:29:37.700Z</time>
      </trkpt>
      <trkpt lat="45.43646" lon="5.47735">
        <ele>636.5</ele>
        <time>2011-04-28T14:29:42.700Z</time>
      </trkpt>
      <trkpt lat="45.43867" lon="5.4806">
        <ele>638.5</ele>
        <time>2011-04-28T14:31:06.690Z</time>
      </trkpt>
      <trkpt lat="45.43884" lon="5.48076">
        <ele>638</ele>
        <time>2011-04-28T14:31:11.690Z</time>
      </trkpt>
      <trkpt lat="45.43903" lon="5.48086">
        <ele>636.5</ele>
        <time>2011-04-28T14:31:15.690Z</time>
      </trkpt>
      <trkpt lat="45.43934" lon="5.4809">
        <ele>635</ele>
        <time>2011-04-28T14:31:21.690Z</time>
      </trkpt>
      <trkpt lat="45.44009" lon="5.48084">
        <ele>631.5</ele>
        <time>2011-04-28T14:31:36.690Z</time>
      </trkpt>
      <trkpt lat="45.44022" lon="5.48088">
        <ele>630.5</ele>
        <time>2011-04-28T14:31:45.720Z</time>
      </trkpt>
      <trkpt lat="45.44025" lon="5.48094">
        <ele>630.5</ele>
        <time>2011-04-28T14:31:52.690Z</time>
      </trkpt>
      <trkpt lat="45.44026" lon="5.48091">
        <ele>632</ele>
        <time>2011-04-28T14:32:17.690Z</time>
      </trkpt>
      <trkpt lat="45.44024" lon="5.4809">
        <ele>633</ele>
        <time>2011-04-28T14:32:23.690Z</time>
      </trkpt>
      <trkpt lat="45.44028" lon="5.48088">
        <ele>633</ele>
        <time>2011-04-28T14:32:40.690Z</time>
      </trkpt>
      <trkpt lat="45.44023" lon="5.48081">
        <ele>639</ele>
        <time>2011-04-28T14:32:46.690Z</time>
      </trkpt>
      <trkpt lat="45.44065" lon="5.48076">
        <ele>641.5</ele>
        <time>2011-04-28T14:33:13.680Z</time>
      </trkpt>
      <trkpt lat="45.44256" lon="5.48073">
        <ele>641.5</ele>
        <time>2011-04-28T14:34:16.680Z</time>
      </trkpt>
      <trkpt lat="45.44415" lon="5.48123">
        <ele>652</ele>
        <time>2011-04-28T14:35:16.680Z</time>
      </trkpt>
      <trkpt lat="45.44444" lon="5.48135">
        <ele>653.5</ele>
        <time>2011-04-28T14:35:26.670Z</time>
      </trkpt>
      <trkpt lat="45.44495" lon="5.48149">
        <ele>658</ele>
        <time>2011-04-28T14:35:44.670Z</time>
      </trkpt>
      <trkpt lat="45.44536" lon="5.48147">
        <ele>656.5</ele>
        <time>2011-04-28T14:36:00.680Z</time>
      </trkpt>
      <trkpt lat="45.4456" lon="5.48154">
        <ele>664.5</ele>
        <time>2011-04-28T14:36:11.670Z</time>
      </trkpt>
      <trkpt lat="45.44582" lon="5.4818">
        <ele>666.5</ele>
        <time>2011-04-28T14:36:22.670Z</time>
      </trkpt>
      <trkpt lat="45.44597" lon="5.4819">
        <ele>665</ele>
        <time>2011-04-28T14:36:29.680Z</time>
      </trkpt>
      <trkpt lat="45.44639" lon="5.48185">
        <ele>669.5</ele>
        <time>2011-04-28T14:36:47.670Z</time>
      </trkpt>
      <trkpt lat="45.44651" lon="5.48187">
        <ele>669.5</ele>
        <time>2011-04-28T14:36:53.670Z</time>
      </trkpt>
      <trkpt lat="45.44675" lon="5.48182">
        <ele>670.5</ele>
        <time>2011-04-28T14:37:07.660Z</time>
      </trkpt>
      <trkpt lat="45.44712" lon="5.48158">
        <ele>670</ele>
        <time>2011-04-28T14:37:31.670Z</time>
      </trkpt>
      <trkpt lat="45.44733" lon="5.48158">
        <ele>679</ele>
        <time>2011-04-28T14:37:46.670Z</time>
      </trkpt>
      <trkpt lat="45.44768" lon="5.48195">
        <ele>682.5</ele>
        <time>2011-04-28T14:38:09.670Z</time>
      </trkpt>
      <trkpt lat="45.44788" lon="5.48207">
        <ele>688.5</ele>
        <time>2011-04-28T14:38:21.660Z</time>
      </trkpt>
      <trkpt lat="45.44819" lon="5.4821">
        <ele>706.5</ele>
        <time>2011-04-28T14:38:41.660Z</time>
      </trkpt>
      <trkpt lat="45.44848" lon="5.48217">
        <ele>719.5</ele>
        <time>2011-04-28T14:39:01.650Z</time>
      </trkpt>
      <trkpt lat="45.44856" lon="5.48232">
        <ele>718.5</ele>
        <time>2011-04-28T14:39:07.650Z</time>
      </trkpt>
      <trkpt lat="45.44866" lon="5.48238">
        <ele>728.5</ele>
        <time>2011-04-28T14:39:14.650Z</time>
      </trkpt>
      <trkpt lat="45.44888" lon="5.4826">
        <ele>730.5</ele>
        <time>2011-04-28T14:39:27.650Z</time>
      </trkpt>
      <trkpt lat="45.44901" lon="5.48264">
        <ele>729.5</ele>
        <time>2011-04-28T14:39:34.650Z</time>
      </trkpt>
      <trkpt lat="45.44929" lon="5.48267">
        <ele>726</ele>
        <time>2011-04-28T14:39:50.640Z</time>
      </trkpt>
      <trkpt lat="45.44934" lon="5.48271">
        <ele>722</ele>
        <time>2011-04-28T14:39:52.640Z</time>
      </trkpt>
      <trkpt lat="45.44986" lon="5.48276">
        <ele>731</ele>
        <time>2011-04-28T14:40:19.640Z</time>
      </trkpt>
      <trkpt lat="45.45002" lon="5.4827">
        <ele>736.5</ele>
        <time>2011-04-28T14:40:29.650Z</time>
      </trkpt>
      <trkpt lat="45.45025" lon="5.48256">
        <ele>737.5</ele>
        <time>2011-04-28T14:40:46.650Z</time>
      </trkpt>
      <trkpt lat="45.45025" lon="5.48254">
        <ele>737</ele>
        <time>2011-04-28T14:40:47.640Z</time>
      </trkpt>
      <trkpt lat="45.45047" lon="5.48244">
        <ele>738.5</ele>
        <time>2011-04-28T14:41:02.650Z</time>
      </trkpt>
      <trkpt lat="45.45063" lon="5.48233">
        <ele>736.5</ele>
        <time>2011-04-28T14:41:14.650Z</time>
      </trkpt>
      <trkpt lat="45.45089" lon="5.48232">
        <ele>739</ele>
        <time>2011-04-28T14:41:36.640Z</time>
      </trkpt>
      <trkpt lat="45.45097" lon="5.48236">
        <ele>738.5</ele>
        <time>2011-04-28T14:41:41.640Z</time>
      </trkpt>
      <trkpt lat="45.45128" lon="5.48241">
        <ele>749.5</ele>
        <time>2011-04-28T14:41:58.640Z</time>
      </trkpt>
      <trkpt lat="45.45139" lon="5.4824">
        <ele>749</ele>
        <time>2011-04-28T14:42:04.640Z</time>
      </trkpt>
      <trkpt lat="45.45143" lon="5.48243">
        <ele>747.5</ele>
        <time>2011-04-28T14:42:07.630Z</time>
      </trkpt>
      <trkpt lat="45.4517" lon="5.48243">
        <ele>746.5</ele>
        <time>2011-04-28T14:42:20.630Z</time>
      </trkpt>
      <trkpt lat="45.45217" lon="5.48256">
        <ele>744</ele>
        <time>2011-04-28T14:42:46.640Z</time>
      </trkpt>
      <trkpt lat="45.45227" lon="5.48253">
        <ele>743.5</ele>
        <time>2011-04-28T14:42:49.650Z</time>
      </trkpt>
      <trkpt lat="45.45232" lon="5.48248">
        <ele>743</ele>
        <time>2011-04-28T14:42:52.640Z</time>
      </trkpt>
      <trkpt lat="45.45257" lon="5.48254">
        <ele>760</ele>
        <time>2011-04-28T14:43:06.630Z</time>
      </trkpt>
      <trkpt lat="45.45284" lon="5.48242">
        <ele>755</ele>
        <time>2011-04-28T14:43:18.620Z</time>
      </trkpt>
      <trkpt lat="45.45291" lon="5.48243">
        <ele>752</ele>
        <time>2011-04-28T14:43:21.620Z</time>
      </trkpt>
      <trkpt lat="45.45316" lon="5.4823">
        <ele>749.5</ele>
        <time>2011-04-28T14:43:35.630Z</time>
      </trkpt>
      <trkpt lat="45.45336" lon="5.48214">
        <ele>745.5</ele>
        <time>2011-04-28T14:43:47.630Z</time>
      </trkpt>
      <trkpt lat="45.45344" lon="5.48203">
        <ele>742.5</ele>
        <time>2011-04-28T14:43:52.620Z</time>
      </trkpt>
      <trkpt lat="45.4536" lon="5.48194">
        <ele>748</ele>
        <time>2011-04-28T14:44:01.630Z</time>
      </trkpt>
      <trkpt lat="45.45378" lon="5.48172">
        <ele>752.5</ele>
        <time>2011-04-28T14:44:15.620Z</time>
      </trkpt>
      <trkpt lat="45.45383" lon="5.4817">
        <ele>753.5</ele>
        <time>2011-04-28T14:44:18.630Z</time>
      </trkpt>
      <trkpt lat="45.45415" lon="5.48133">
        <ele>756</ele>
        <time>2011-04-28T14:44:41.620Z</time>
      </trkpt>
      <trkpt lat="45.45415" lon="5.4813">
        <ele>757</ele>
        <time>2011-04-28T14:44:42.620Z</time>
      </trkpt>
      <trkpt lat="45.45436" lon="5.48104">
        <ele>747.5</ele>
        <time>2011-04-28T14:44:56.620Z</time>
      </trkpt>
      <trkpt lat="45.45456" lon="5.48088">
        <ele>741</ele>
        <time>2011-04-28T14:45:08.610Z</time>
      </trkpt>
      <trkpt lat="45.45512" lon="5.48015">
        <ele>736.5</ele>
        <time>2011-04-28T14:45:41.610Z</time>
      </trkpt>
      <trkpt lat="45.45533" lon="5.48002">
        <ele>740.5</ele>
        <time>2011-04-28T14:45:52.610Z</time>
      </trkpt>
      <trkpt lat="45.45562" lon="5.47977">
        <ele>746.5</ele>
        <time>2011-04-28T14:46:09.610Z</time>
      </trkpt>
      <trkpt lat="45.45579" lon="5.47969">
        <ele>745.5</ele>
        <time>2011-04-28T14:46:18.610Z</time>
      </trkpt>
      <trkpt lat="45.45646" lon="5.4796">
        <ele>759</ele>
        <time>2011-04-28T14:46:51.610Z</time>
      </trkpt>
      <trkpt lat="45.45707" lon="5.47956">
        <ele>777.5</ele>
        <time>2011-04-28T14:47:13.610Z</time>
      </trkpt>
      <trkpt lat="45.45771" lon="5.47962">
        <ele>789.5</ele>
        <time>2011-04-28T14:47:42.600Z</time>
      </trkpt>
      <trkpt lat="45.45803" lon="5.47951">
        <ele>794.5</ele>
        <time>2011-04-28T14:47:58.610Z</time>
      </trkpt>
      <trkpt lat="45.45809" lon="5.47977">
        <ele>800.5</ele>
        <time>2011-04-28T14:48:10.600Z</time>
      </trkpt>
      <trkpt lat="45.45826" lon="5.48007">
        <ele>812.5</ele>
        <time>2011-04-28T14:48:25.600Z</time>
      </trkpt>
      <trkpt lat="45.45872" lon="5.48022">
        <ele>814</ele>
        <time>2011-04-28T14:48:47.610Z</time>
      </trkpt>
      <trkpt lat="45.4589" lon="5.48034">
        <ele>817.5</ele>
        <time>2011-04-28T14:48:51.610Z</time>
      </trkpt>
      <trkpt lat="45.45905" lon="5.48052">
        <ele>822.5</ele>
        <time>2011-04-28T14:48:55.600Z</time>
      </trkpt>
      <trkpt lat="45.45941" lon="5.4812">
        <ele>816.5</ele>
        <time>2011-04-28T14:49:12.600Z</time>
      </trkpt>
      <trkpt lat="45.45962" lon="5.48146">
        <ele>823</ele>
        <time>2011-04-28T14:49:25.600Z</time>
      </trkpt>
      <trkpt lat="45.45973" lon="5.48165">
        <ele>825</ele>
        <time>2011-04-28T14:49:30.600Z</time>
      </trkpt>
      <trkpt lat="45.45986" lon="5.48198">
        <ele>825.5</ele>
        <time>2011-04-28T14:49:38.600Z</time>
      </trkpt>
      <trkpt lat="45.46027" lon="5.48333">
        <ele>802.5</ele>
        <time>2011-04-28T14:50:00.590Z</time>
      </trkpt>
      <trkpt lat="45.46056" lon="5.48409">
        <ele>792.5</ele>
        <time>2011-04-28T14:50:10.590Z</time>
      </trkpt>
      <trkpt lat="45.46075" lon="5.48413">
        <ele>789.5</ele>
        <time>2011-04-28T14:50:13.590Z</time>
      </trkpt>
      <trkpt lat="45.46087" lon="5.4842">
        <ele>786</ele>
        <time>2011-04-28T14:50:15.590Z</time>
      </trkpt>
      <trkpt lat="45.46112" lon="5.48448">
        <ele>780.5</ele>
        <time>2011-04-28T14:50:19.590Z</time>
      </trkpt>
      <trkpt lat="45.46124" lon="5.48466">
        <ele>778.5</ele>
        <time>2011-04-28T14:50:21.590Z</time>
      </trkpt>
      <trkpt lat="45.46133" lon="5.48474">
        <ele>776.5</ele>
        <time>2011-04-28T14:50:23.590Z</time>
      </trkpt>
      <trkpt lat="45.46143" lon="5.48474">
        <ele>774</ele>
        <time>2011-04-28T14:50:25.590Z</time>
      </trkpt>
      <trkpt lat="45.46251" lon="5.48389">
        <ele>761.5</ele>
        <time>2011-04-28T14:50:43.590Z</time>
      </trkpt>
      <trkpt lat="45.46263" lon="5.48388">
        <ele>762.5</ele>
        <time>2011-04-28T14:50:45.590Z</time>
      </trkpt>
      <trkpt lat="45.4627" lon="5.48392">
        <ele>761.5</ele>
        <time>2011-04-28T14:50:46.590Z</time>
      </trkpt>
      <trkpt lat="45.46322" lon="5.48445">
        <ele>754.5</ele>
        <time>2011-04-28T14:50:54.590Z</time>
      </trkpt>
      <trkpt lat="45.46383" lon="5.48483">
        <ele>745.5</ele>
        <time>2011-04-28T14:51:01.590Z</time>
      </trkpt>
      <trkpt lat="45.4649" lon="5.48544">
        <ele>737</ele>
        <time>2011-04-28T14:51:14.590Z</time>
      </trkpt>
      <trkpt lat="45.4652" lon="5.48558">
        <ele>736.5</ele>
        <time>2011-04-28T14:51:18.590Z</time>
      </trkpt>
      <trkpt lat="45.46548" lon="5.48582">
        <ele>736</ele>
        <time>2011-04-28T14:51:23.590Z</time>
      </trkpt>
      <trkpt lat="45.4658" lon="5.48619">
        <ele>736.5</ele>
        <time>2011-04-28T14:51:33.590Z</time>
      </trkpt>
      <trkpt lat="45.46612" lon="5.48645">
        <ele>735.5</ele>
        <time>2011-04-28T14:51:43.590Z</time>
      </trkpt>
      <trkpt lat="45.46652" lon="5.48665">
        <ele>734</ele>
        <time>2011-04-28T14:51:53.590Z</time>
      </trkpt>
      <trkpt lat="45.46703" lon="5.48673">
        <ele>727.5</ele>
        <time>2011-04-28T14:52:03.590Z</time>
      </trkpt>
      <trkpt lat="45.46746" lon="5.48694">
        <ele>723</ele>
        <time>2011-04-28T14:52:10.590Z</time>
      </trkpt>
      <trkpt lat="45.46779" lon="5.48692">
        <ele>718</ele>
        <time>2011-04-28T14:52:15.590Z</time>
      </trkpt>
      <trkpt lat="45.46799" lon="5.48684">
        <ele>714.5</ele>
        <time>2011-04-28T14:52:18.590Z</time>
      </trkpt>
      <trkpt lat="45.46812" lon="5.48676">
        <ele>713</ele>
        <time>2011-04-28T14:52:20.590Z</time>
      </trkpt>
      <trkpt lat="45.46851" lon="5.48634">
        <ele>708.5</ele>
        <time>2011-04-28T14:52:27.590Z</time>
      </trkpt>
      <trkpt lat="45.46866" lon="5.48609">
        <ele>706.5</ele>
        <time>2011-04-28T14:52:30.590Z</time>
      </trkpt>
      <trkpt lat="45.46884" lon="5.48568">
        <ele>704.5</ele>
        <time>2011-04-28T14:52:34.580Z</time>
      </trkpt>
      <trkpt lat="45.4691" lon="5.48479">
        <ele>701</ele>
        <time>2011-04-28T14:52:45.580Z</time>
      </trkpt>
      <trkpt lat="45.46908" lon="5.48473">
        <ele>702</ele>
        <time>2011-04-28T14:52:47.590Z</time>
      </trkpt>
      <trkpt lat="45.46894" lon="5.48457">
        <ele>701.5</ele>
        <time>2011-04-28T14:52:52.580Z</time>
      </trkpt>
      <trkpt lat="45.46835" lon="5.48363">
        <ele>699.5</ele>
        <time>2011-04-28T14:53:13.580Z</time>
      </trkpt>
      <trkpt lat="45.46795" lon="5.48308">
        <ele>698.5</ele>
        <time>2011-04-28T14:53:26.580Z</time>
      </trkpt>
      <trkpt lat="45.46787" lon="5.48307">
        <ele>699.5</ele>
        <time>2011-04-28T14:53:28.580Z</time>
      </trkpt>
      <trkpt lat="45.46699" lon="5.48345">
        <ele>703</ele>
        <time>2011-04-28T14:53:52.580Z</time>
      </trkpt>
      <trkpt lat="45.46687" lon="5.48345">
        <ele>704</ele>
        <time>2011-04-28T14:53:55.580Z</time>
      </trkpt>
      <trkpt lat="45.46632" lon="5.48327">
        <ele>704.5</ele>
        <time>2011-04-28T14:54:08.580Z</time>
      </trkpt>
      <trkpt lat="45.46593" lon="5.48308">
        <ele>706</ele>
        <time>2011-04-28T14:54:19.580Z</time>
      </trkpt>
      <trkpt lat="45.46567" lon="5.48289">
        <ele>709</ele>
        <time>2011-04-28T14:54:31.580Z</time>
      </trkpt>
      <trkpt lat="45.46533" lon="5.48255">
        <ele>717</ele>
        <time>2011-04-28T14:54:54.580Z</time>
      </trkpt>
      <trkpt lat="45.46471" lon="5.48205">
        <ele>726</ele>
        <time>2011-04-28T14:55:35.590Z</time>
      </trkpt>
      <trkpt lat="45.46452" lon="5.48198">
        <ele>727.5</ele>
        <time>2011-04-28T14:55:46.580Z</time>
      </trkpt>
      <trkpt lat="45.46402" lon="5.48192">
        <ele>730</ele>
        <time>2011-04-28T14:56:59.570Z</time>
      </trkpt>
      <trkpt lat="45.46304" lon="5.48167">
        <ele>737.5</ele>
        <time>2011-04-28T14:57:29.570Z</time>
      </trkpt>
      <trkpt lat="45.46286" lon="5.48158">
        <ele>739</ele>
        <time>2011-04-28T14:57:36.570Z</time>
      </trkpt>
      <trkpt lat="45.4626" lon="5.4813">
        <ele>745.5</ele>
        <time>2011-04-28T14:57:49.580Z</time>
      </trkpt>
      <trkpt lat="45.46245" lon="5.48108">
        <ele>748.5</ele>
        <time>2011-04-28T14:57:57.580Z</time>
      </trkpt>
      <trkpt lat="45.46179" lon="5.4803">
        <ele>763.5</ele>
        <time>2011-04-28T14:58:38.570Z</time>
      </trkpt>
      <trkpt lat="45.46159" lon="5.48012">
        <ele>768.5</ele>
        <time>2011-04-28T14:58:52.560Z</time>
      </trkpt>
      <trkpt lat="45.46111" lon="5.47993">
        <ele>774</ele>
        <time>2011-04-28T14:59:20.560Z</time>
      </trkpt>
      <trkpt lat="45.46094" lon="5.47989">
        <ele>776</ele>
        <time>2011-04-28T14:59:30.560Z</time>
      </trkpt>
      <trkpt lat="45.46045" lon="5.47989">
        <ele>781.5</ele>
        <time>2011-04-28T14:59:52.570Z</time>
      </trkpt>
      <trkpt lat="45.46011" lon="5.47977">
        <ele>782</ele>
        <time>2011-04-28T15:00:04.570Z</time>
      </trkpt>
      <trkpt lat="45.45974" lon="5.47952">
        <ele>783.5</ele>
        <time>2011-04-28T15:00:18.720Z</time>
      </trkpt>
      <trkpt lat="45.4594" lon="5.47914">
        <ele>788</ele>
        <time>2011-04-28T15:00:33.560Z</time>
      </trkpt>
      <trkpt lat="45.45924" lon="5.47889">
        <ele>791</ele>
        <time>2011-04-28T15:00:41.550Z</time>
      </trkpt>
      <trkpt lat="45.45886" lon="5.47844">
        <ele>792</ele>
        <time>2011-04-28T15:00:57.550Z</time>
      </trkpt>
      <trkpt lat="45.45778" lon="5.47706">
        <ele>793.5</ele>
        <time>2011-04-28T15:01:34.550Z</time>
      </trkpt>
      <trkpt lat="45.45756" lon="5.47687">
        <ele>793</ele>
        <time>2011-04-28T15:01:40.560Z</time>
      </trkpt>
      <trkpt lat="45.45725" lon="5.47674">
        <ele>795</ele>
        <time>2011-04-28T15:01:48.560Z</time>
      </trkpt>
      <trkpt lat="45.45701" lon="5.47671">
        <ele>795</ele>
        <time>2011-04-28T15:01:54.560Z</time>
      </trkpt>
      <trkpt lat="45.45672" lon="5.47661">
        <ele>795.5</ele>
        <time>2011-04-28T15:02:01.550Z</time>
      </trkpt>
      <trkpt lat="45.45612" lon="5.47649">
        <ele>799.5</ele>
        <time>2011-04-28T15:02:21.560Z</time>
      </trkpt>
      <trkpt lat="45.45596" lon="5.47637">
        <ele>803</ele>
        <time>2011-04-28T15:02:29.560Z</time>
      </trkpt>
      <trkpt lat="45.45572" lon="5.47608">
        <ele>814</ele>
        <time>2011-04-28T15:02:43.570Z</time>
      </trkpt>
      <trkpt lat="45.45548" lon="5.47587">
        <ele>825</ele>
        <time>2011-04-28T15:02:57.570Z</time>
      </trkpt>
      <trkpt lat="45.45508" lon="5.47563">
        <ele>832.5</ele>
        <time>2011-04-28T15:03:16.570Z</time>
      </trkpt>
      <trkpt lat="45.455" lon="5.47555">
        <ele>830</ele>
        <time>2011-04-28T15:03:20.570Z</time>
      </trkpt>
      <trkpt lat="45.45473" lon="5.47539">
        <ele>830.5</ele>
        <time>2011-04-28T15:03:32.570Z</time>
      </trkpt>
      <trkpt lat="45.45431" lon="5.47523">
        <ele>832.5</ele>
        <time>2011-04-28T15:03:47.570Z</time>
      </trkpt>
      <trkpt lat="45.45414" lon="5.47511">
        <ele>829</ele>
        <time>2011-04-28T15:03:53.570Z</time>
      </trkpt>
      <trkpt lat="45.45359" lon="5.47435">
        <ele>839.5</ele>
        <time>2011-04-28T15:04:19.570Z</time>
      </trkpt>
      <trkpt lat="45.4535" lon="5.47427">
        <ele>837.5</ele>
        <time>2011-04-28T15:04:22.570Z</time>
      </trkpt>
      <trkpt lat="45.4534" lon="5.47414">
        <ele>836</ele>
        <time>2011-04-28T15:04:26.570Z</time>
      </trkpt>
      <trkpt lat="45.45303" lon="5.47378">
        <ele>817.5</ele>
        <time>2011-04-28T15:04:34.570Z</time>
      </trkpt>
      <trkpt lat="45.45291" lon="5.47358">
        <ele>816</ele>
        <time>2011-04-28T15:04:38.570Z</time>
      </trkpt>
      <trkpt lat="45.45268" lon="5.47332">
        <ele>815.5</ele>
        <time>2011-04-28T15:04:45.570Z</time>
      </trkpt>
      <trkpt lat="45.4523" lon="5.47269">
        <ele>805</ele>
        <time>2011-04-28T15:04:59.570Z</time>
      </trkpt>
      <trkpt lat="45.45205" lon="5.47237">
        <ele>800.5</ele>
        <time>2011-04-28T15:05:07.570Z</time>
      </trkpt>
      <trkpt lat="45.45183" lon="5.47217">
        <ele>797</ele>
        <time>2011-04-28T15:05:14.570Z</time>
      </trkpt>
      <trkpt lat="45.45175" lon="5.47215">
        <ele>795.5</ele>
        <time>2011-04-28T15:05:16.570Z</time>
      </trkpt>
      <trkpt lat="45.45136" lon="5.4723">
        <ele>789.5</ele>
        <time>2011-04-28T15:05:24.570Z</time>
      </trkpt>
      <trkpt lat="45.45092" lon="5.47237">
        <ele>786</ele>
        <time>2011-04-28T15:05:32.570Z</time>
      </trkpt>
      <trkpt lat="45.4507" lon="5.47245">
        <ele>784.5</ele>
        <time>2011-04-28T15:05:39.570Z</time>
      </trkpt>
      <trkpt lat="45.45057" lon="5.47244">
        <ele>788</ele>
        <time>2011-04-28T15:05:47.570Z</time>
      </trkpt>
      <trkpt lat="45.4504" lon="5.4723">
        <ele>798</ele>
        <time>2011-04-28T15:05:59.570Z</time>
      </trkpt>
      <trkpt lat="45.45027" lon="5.4721">
        <ele>803.5</ele>
        <time>2011-04-28T15:06:08.570Z</time>
      </trkpt>
      <trkpt lat="45.45009" lon="5.47158">
        <ele>810</ele>
        <time>2011-04-28T15:06:23.570Z</time>
      </trkpt>
      <trkpt lat="45.44984" lon="5.47116">
        <ele>812.5</ele>
        <time>2011-04-28T15:06:34.570Z</time>
      </trkpt>
      <trkpt lat="45.44966" lon="5.471">
        <ele>813.5</ele>
        <time>2011-04-28T15:06:39.570Z</time>
      </trkpt>
      <trkpt lat="45.44888" lon="5.47076">
        <ele>823.5</ele>
        <time>2011-04-28T15:07:02.570Z</time>
      </trkpt>
      <trkpt lat="45.44881" lon="5.47069">
        <ele>827</ele>
        <time>2011-04-28T15:07:05.570Z</time>
      </trkpt>
      <trkpt lat="45.44856" lon="5.47059">
        <ele>827.5</ele>
        <time>2011-04-28T15:07:12.570Z</time>
      </trkpt>
      <trkpt lat="45.44817" lon="5.47029">
        <ele>834</ele>
        <time>2011-04-28T15:07:26.570Z</time>
      </trkpt>
      <trkpt lat="45.44803" lon="5.47025">
        <ele>833</ele>
        <time>2011-04-28T15:07:30.570Z</time>
      </trkpt>
      <trkpt lat="45.44766" lon="5.46985">
        <ele>831</ele>
        <time>2011-04-28T15:07:41.570Z</time>
      </trkpt>
      <trkpt lat="45.44753" lon="5.46977">
        <ele>826.5</ele>
        <time>2011-04-28T15:07:44.570Z</time>
      </trkpt>
      <trkpt lat="45.44734" lon="5.46942">
        <ele>817.5</ele>
        <time>2011-04-28T15:07:51.570Z</time>
      </trkpt>
      <trkpt lat="45.44722" lon="5.46936">
        <ele>820.5</ele>
        <time>2011-04-28T15:07:57.570Z</time>
      </trkpt>
      <trkpt lat="45.44706" lon="5.46922">
        <ele>822.5</ele>
        <time>2011-04-28T15:08:06.570Z</time>
      </trkpt>
      <trkpt lat="45.44679" lon="5.46878">
        <ele>814.5</ele>
        <time>2011-04-28T15:08:19.570Z</time>
      </trkpt>
      <trkpt lat="45.44636" lon="5.46826">
        <ele>810.5</ele>
        <time>2011-04-28T15:08:29.570Z</time>
      </trkpt>
      <trkpt lat="45.44615" lon="5.46787">
        <ele>813</ele>
        <time>2011-04-28T15:08:34.570Z</time>
      </trkpt>
      <trkpt lat="45.44595" lon="5.46768">
        <ele>809.5</ele>
        <time>2011-04-28T15:08:37.570Z</time>
      </trkpt>
      <trkpt lat="45.4459" lon="5.46758">
        <ele>807</ele>
        <time>2011-04-28T15:08:38.570Z</time>
      </trkpt>
      <trkpt lat="45.44543" lon="5.46702">
        <ele>799</ele>
        <time>2011-04-28T15:08:51.570Z</time>
      </trkpt>
      <trkpt lat="45.44538" lon="5.46704">
        <ele>791</ele>
        <time>2011-04-28T15:09:10.570Z</time>
      </trkpt>
      <trkpt lat="45.44529" lon="5.46692">
        <ele>771.5</ele>
        <time>2011-04-28T15:12:14.570Z</time>
      </trkpt>
      <trkpt lat="45.44533" lon="5.46685">
        <ele>767.5</ele>
        <time>2011-04-28T15:12:19.570Z</time>
      </trkpt>
      <trkpt lat="45.44541" lon="5.46684">
        <ele>765</ele>
        <time>2011-04-28T15:12:22.570Z</time>
      </trkpt>
      <trkpt lat="45.44633" lon="5.46701">
        <ele>755.5</ele>
        <time>2011-04-28T15:12:36.570Z</time>
      </trkpt>
      <trkpt lat="45.44644" lon="5.46695">
        <ele>756.5</ele>
        <time>2011-04-28T15:12:38.570Z</time>
      </trkpt>
      <trkpt lat="45.4466" lon="5.46693">
        <ele>756</ele>
        <time>2011-04-28T15:12:40.570Z</time>
      </trkpt>
      <trkpt lat="45.44675" lon="5.46686">
        <ele>755.5</ele>
        <time>2011-04-28T15:12:42.570Z</time>
      </trkpt>
      <trkpt lat="45.44712" lon="5.46687">
        <ele>753</ele>
        <time>2011-04-28T15:12:46.570Z</time>
      </trkpt>
      <trkpt lat="45.44782" lon="5.46702">
        <ele>737</ele>
        <time>2011-04-28T15:12:54.570Z</time>
      </trkpt>
      <trkpt lat="45.44824" lon="5.46697">
        <ele>730</ele>
        <time>2011-04-28T15:12:59.570Z</time>
      </trkpt>
      <trkpt lat="45.44861" lon="5.46681">
        <ele>723</ele>
        <time>2011-04-28T15:13:04.570Z</time>
      </trkpt>
      <trkpt lat="45.44866" lon="5.46673">
        <ele>722.5</ele>
        <time>2011-04-28T15:13:05.570Z</time>
      </trkpt>
      <trkpt lat="45.44874" lon="5.46671">
        <ele>721.5</ele>
        <time>2011-04-28T15:13:06.570Z</time>
      </trkpt>
      <trkpt lat="45.44891" lon="5.46672">
        <ele>719.5</ele>
        <time>2011-04-28T15:13:08.570Z</time>
      </trkpt>
      <trkpt lat="45.44913" lon="5.46685">
        <ele>722</ele>
        <time>2011-04-28T15:13:11.570Z</time>
      </trkpt>
      <trkpt lat="45.44926" lon="5.46697">
        <ele>720</ele>
        <time>2011-04-28T15:13:13.570Z</time>
      </trkpt>
      <trkpt lat="45.4497" lon="5.46722">
        <ele>724</ele>
        <time>2011-04-28T15:13:19.570Z</time>
      </trkpt>
      <trkpt lat="45.44997" lon="5.46718">
        <ele>721</ele>
        <time>2011-04-28T15:13:22.570Z</time>
      </trkpt>
      <trkpt lat="45.45047" lon="5.46705">
        <ele>715.5</ele>
        <time>2011-04-28T15:13:27.570Z</time>
      </trkpt>
      <trkpt lat="45.45064" lon="5.46695">
        <ele>712.5</ele>
        <time>2011-04-28T15:13:29.570Z</time>
      </trkpt>
      <trkpt lat="45.45099" lon="5.46664">
        <ele>710.5</ele>
        <time>2011-04-28T15:13:34.570Z</time>
      </trkpt>
      <trkpt lat="45.45128" lon="5.46647">
        <ele>707</ele>
        <time>2011-04-28T15:13:38.570Z</time>
      </trkpt>
      <trkpt lat="45.45152" lon="5.46641">
        <ele>706.5</ele>
        <time>2011-04-28T15:13:41.570Z</time>
      </trkpt>
      <trkpt lat="45.45157" lon="5.46637">
        <ele>705</ele>
        <time>2011-04-28T15:13:42.570Z</time>
      </trkpt>
      <trkpt lat="45.45161" lon="5.46628">
        <ele>704</ele>
        <time>2011-04-28T15:13:44.570Z</time>
      </trkpt>
      <trkpt lat="45.45157" lon="5.46606">
        <ele>698.5</ele>
        <time>2011-04-28T15:13:48.570Z</time>
      </trkpt>
      <trkpt lat="45.4515" lon="5.46587">
        <ele>696</ele>
        <time>2011-04-28T15:13:52.570Z</time>
      </trkpt>
      <trkpt lat="45.45134" lon="5.46568">
        <ele>692</ele>
        <time>2011-04-28T15:13:56.570Z</time>
      </trkpt>
      <trkpt lat="45.45121" lon="5.4656">
        <ele>691.5</ele>
        <time>2011-04-28T15:13:58.570Z</time>
      </trkpt>
      <trkpt lat="45.45105" lon="5.46556">
        <ele>692</ele>
        <time>2011-04-28T15:14:00.570Z</time>
      </trkpt>
      <trkpt lat="45.45072" lon="5.46538">
        <ele>689.5</ele>
        <time>2011-04-28T15:14:04.570Z</time>
      </trkpt>
      <trkpt lat="45.45064" lon="5.4653">
        <ele>689</ele>
        <time>2011-04-28T15:14:05.570Z</time>
      </trkpt>
      <trkpt lat="45.45004" lon="5.46494">
        <ele>690.5</ele>
        <time>2011-04-28T15:14:12.590Z</time>
      </trkpt>
      <trkpt lat="45.44975" lon="5.46458">
        <ele>689</ele>
        <time>2011-04-28T15:14:16.590Z</time>
      </trkpt>
      <trkpt lat="45.44969" lon="5.46448">
        <ele>688.5</ele>
        <time>2011-04-28T15:14:17.590Z</time>
      </trkpt>
      <trkpt lat="45.44962" lon="5.46406">
        <ele>687</ele>
        <time>2011-04-28T15:14:20.590Z</time>
      </trkpt>
      <trkpt lat="45.44963" lon="5.46347">
        <ele>684.5</ele>
        <time>2011-04-28T15:14:24.590Z</time>
      </trkpt>
      <trkpt lat="45.44955" lon="5.46217">
        <ele>682</ele>
        <time>2011-04-28T15:14:33.590Z</time>
      </trkpt>
      <trkpt lat="45.44938" lon="5.46108">
        <ele>680</ele>
        <time>2011-04-28T15:14:41.590Z</time>
      </trkpt>
      <trkpt lat="45.44927" lon="5.4609">
        <ele>675</ele>
        <time>2011-04-28T15:14:44.590Z</time>
      </trkpt>
      <trkpt lat="45.449" lon="5.46064">
        <ele>657.5</ele>
        <time>2011-04-28T15:14:52.590Z</time>
      </trkpt>
      <trkpt lat="45.44891" lon="5.46041">
        <ele>655</ele>
        <time>2011-04-28T15:14:57.590Z</time>
      </trkpt>
      <trkpt lat="45.44858" lon="5.45938">
        <ele>650</ele>
        <time>2011-04-28T15:15:21.590Z</time>
      </trkpt>
      <trkpt lat="45.44843" lon="5.4591">
        <ele>644.5</ele>
        <time>2011-04-28T15:15:29.590Z</time>
      </trkpt>
      <trkpt lat="45.4483" lon="5.45893">
        <ele>640.5</ele>
        <time>2011-04-28T15:15:34.590Z</time>
      </trkpt>
      <trkpt lat="45.44773" lon="5.45841">
        <ele>626</ele>
        <time>2011-04-28T15:15:51.590Z</time>
      </trkpt>
      <trkpt lat="45.44765" lon="5.45816">
        <ele>620.5</ele>
        <time>2011-04-28T15:15:57.590Z</time>
      </trkpt>
      <trkpt lat="45.44767" lon="5.45791">
        <ele>614</ele>
        <time>2011-04-28T15:16:21.590Z</time>
      </trkpt>
      <trkpt lat="45.44846" lon="5.45574">
        <ele>573.5</ele>
        <time>2011-04-28T15:17:04.590Z</time>
      </trkpt>
      <trkpt lat="45.44861" lon="5.45516">
        <ele>572.5</ele>
        <time>2011-04-28T15:17:17.590Z</time>
      </trkpt>
      <trkpt lat="45.44855" lon="5.45507">
        <ele>573</ele>
        <time>2011-04-28T15:17:20.590Z</time>
      </trkpt>
      <trkpt lat="45.44825" lon="5.45487">
        <ele>572</ele>
        <time>2011-04-28T15:17:27.590Z</time>
      </trkpt>
      <trkpt lat="45.44767" lon="5.4544">
        <ele>569.5</ele>
        <time>2011-04-28T15:17:38.590Z</time>
      </trkpt>
      <trkpt lat="45.44632" lon="5.45296">
        <ele>563.5</ele>
        <time>2011-04-28T15:18:09.590Z</time>
      </trkpt>
      <trkpt lat="45.44557" lon="5.45222">
        <ele>560</ele>
        <time>2011-04-28T15:18:26.590Z</time>
      </trkpt>
      <trkpt lat="45.44535" lon="5.45209">
        <ele>559</ele>
        <time>2011-04-28T15:18:30.590Z</time>
      </trkpt>
      <trkpt lat="45.44469" lon="5.45181">
        <ele>556</ele>
        <time>2011-04-28T15:18:40.590Z</time>
      </trkpt>
      <trkpt lat="45.44449" lon="5.45167">
        <ele>555.5</ele>
        <time>2011-04-28T15:18:43.590Z</time>
      </trkpt>
      <trkpt lat="45.44429" lon="5.45147">
        <ele>552</ele>
        <time>2011-04-28T15:18:46.590Z</time>
      </trkpt>
      <trkpt lat="45.4441" lon="5.4512">
        <ele>547.5</ele>
        <time>2011-04-28T15:18:49.590Z</time>
      </trkpt>
      <trkpt lat="45.44373" lon="5.45081">
        <ele>542.5</ele>
        <time>2011-04-28T15:18:55.590Z</time>
      </trkpt>
      <trkpt lat="45.44367" lon="5.45079">
        <ele>539</ele>
        <time>2011-04-28T15:18:57.590Z</time>
      </trkpt>
      <trkpt lat="45.44364" lon="5.45085">
        <ele>539</ele>
        <time>2011-04-28T15:18:59.590Z</time>
      </trkpt>
      <trkpt lat="45.44367" lon="5.45101">
        <ele>539</ele>
        <time>2011-04-28T15:19:03.590Z</time>
      </trkpt>
      <trkpt lat="45.44362" lon="5.45124">
        <ele>539.5</ele>
        <time>2011-04-28T15:19:09.590Z</time>
      </trkpt>
      <trkpt lat="45.4434" lon="5.45158">
        <ele>542</ele>
        <time>2011-04-28T15:19:21.590Z</time>
      </trkpt>
      <trkpt lat="45.44328" lon="5.45165">
        <ele>544</ele>
        <time>2011-04-28T15:19:26.590Z</time>
      </trkpt>
      <trkpt lat="45.44301" lon="5.45165">
        <ele>547</ele>
        <time>2011-04-28T15:19:37.590Z</time>
      </trkpt>
      <trkpt lat="45.44276" lon="5.45178">
        <ele>549</ele>
        <time>2011-04-28T15:19:47.590Z</time>
      </trkpt>
      <trkpt lat="45.44242" lon="5.45206">
        <ele>550</ele>
        <time>2011-04-28T15:20:01.590Z</time>
      </trkpt>
      <trkpt lat="45.44229" lon="5.45221">
        <ele>551.5</ele>
        <time>2011-04-28T15:20:08.590Z</time>
      </trkpt>
      <trkpt lat="45.44215" lon="5.45242">
        <ele>554.5</ele>
        <time>2011-04-28T15:20:16.590Z</time>
      </trkpt>
      <trkpt lat="45.44159" lon="5.45308">
        <ele>560.5</ele>
        <time>2011-04-28T15:20:46.590Z</time>
      </trkpt>
      <trkpt lat="45.4414" lon="5.45322">
        <ele>560</ele>
        <time>2011-04-28T15:20:53.590Z</time>
      </trkpt>
      <trkpt lat="45.44106" lon="5.45338">
        <ele>559.5</ele>
        <time>2011-04-28T15:21:04.590Z</time>
      </trkpt>
      <trkpt lat="45.44077" lon="5.45366">
        <ele>562</ele>
        <time>2011-04-28T15:21:19.590Z</time>
      </trkpt>
      <trkpt lat="45.44061" lon="5.45375">
        <ele>564</ele>
        <time>2011-04-28T15:21:27.590Z</time>
      </trkpt>
      <trkpt lat="45.44017" lon="5.45388">
        <ele>575</ele>
        <time>2011-04-28T15:21:54.590Z</time>
      </trkpt>
      <trkpt lat="45.43979" lon="5.45391">
        <ele>578.5</ele>
        <time>2011-04-28T15:22:18.590Z</time>
      </trkpt>
      <trkpt lat="45.43959" lon="5.45398">
        <ele>582</ele>
        <time>2011-04-28T15:22:30.590Z</time>
      </trkpt>
      <trkpt lat="45.43945" lon="5.4541">
        <ele>583</ele>
        <time>2011-04-28T15:22:39.590Z</time>
      </trkpt>
      <trkpt lat="45.43923" lon="5.45439">
        <ele>586</ele>
        <time>2011-04-28T15:23:01.590Z</time>
      </trkpt>
      <trkpt lat="45.43884" lon="5.45462">
        <ele>597</ele>
        <time>2011-04-28T15:23:39.590Z</time>
      </trkpt>
      <trkpt lat="45.43873" lon="5.45471">
        <ele>597.5</ele>
        <time>2011-04-28T15:23:51.590Z</time>
      </trkpt>
      <trkpt lat="45.43854" lon="5.45501">
        <ele>596.5</ele>
        <time>2011-04-28T15:24:18.590Z</time>
      </trkpt>
      <trkpt lat="45.43846" lon="5.45508">
        <ele>603.5</ele>
        <time>2011-04-28T15:24:26.590Z</time>
      </trkpt>
      <trkpt lat="45.43831" lon="5.45512">
        <ele>606.5</ele>
        <time>2011-04-28T15:24:39.590Z</time>
      </trkpt>
      <trkpt lat="45.43808" lon="5.45529">
        <ele>610</ele>
        <time>2011-04-28T15:25:03.590Z</time>
      </trkpt>
      <trkpt lat="45.43804" lon="5.45537">
        <ele>612.5</ele>
        <time>2011-04-28T15:25:10.590Z</time>
      </trkpt>
      <trkpt lat="45.43784" lon="5.45553">
        <ele>622.5</ele>
        <time>2011-04-28T15:25:31.590Z</time>
      </trkpt>
      <trkpt lat="45.43769" lon="5.4556">
        <ele>625</ele>
        <time>2011-04-28T15:25:45.590Z</time>
      </trkpt>
      <trkpt lat="45.43729" lon="5.45566">
        <ele>635.5</ele>
        <time>2011-04-28T15:26:17.590Z</time>
      </trkpt>
      <trkpt lat="45.43696" lon="5.45589">
        <ele>641</ele>
        <time>2011-04-28T15:26:39.590Z</time>
      </trkpt>
      <trkpt lat="45.43681" lon="5.45609">
        <ele>637</ele>
        <time>2011-04-28T15:26:51.590Z</time>
      </trkpt>
      <trkpt lat="45.43627" lon="5.45631">
        <ele>639</ele>
        <time>2011-04-28T15:27:21.590Z</time>
      </trkpt>
      <trkpt lat="45.43587" lon="5.45652">
        <ele>638</ele>
        <time>2011-04-28T15:27:40.590Z</time>
      </trkpt>
      <trkpt lat="45.43525" lon="5.45707">
        <ele>649</ele>
        <time>2011-04-28T15:28:07.590Z</time>
      </trkpt>
      <trkpt lat="45.43441" lon="5.45753">
        <ele>661</ele>
        <time>2011-04-28T15:28:46.590Z</time>
      </trkpt>
      <trkpt lat="45.43429" lon="5.45767">
        <ele>660</ele>
        <time>2011-04-28T15:28:52.590Z</time>
      </trkpt>
      <trkpt lat="45.43329" lon="5.4592">
        <ele>645</ele>
        <time>2011-04-28T15:29:21.590Z</time>
      </trkpt>
      <trkpt lat="45.43301" lon="5.4598">
        <ele>642</ele>
        <time>2011-04-28T15:29:29.590Z</time>
      </trkpt>
      <trkpt lat="45.43261" lon="5.46082">
        <ele>642</ele>
        <time>2011-04-28T15:29:45.590Z</time>
      </trkpt>
      <trkpt lat="45.43204" lon="5.46144">
        <ele>640</ele>
        <time>2011-04-28T15:30:02.590Z</time>
      </trkpt>
      <trkpt lat="45.43177" lon="5.46169">
        <ele>637.5</ele>
        <time>2011-04-28T15:30:08.590Z</time>
      </trkpt>
      <trkpt lat="45.43168" lon="5.46188">
        <ele>635</ele>
        <time>2011-04-28T15:30:11.590Z</time>
      </trkpt>
      <trkpt lat="45.43154" lon="5.46236">
        <ele>633.5</ele>
        <time>2011-04-28T15:30:17.590Z</time>
      </trkpt>
      <trkpt lat="45.43132" lon="5.46292">
        <ele>631</ele>
        <time>2011-04-28T15:30:24.590Z</time>
      </trkpt>
      <trkpt lat="45.43117" lon="5.46336">
        <ele>629.5</ele>
        <time>2011-04-28T15:30:29.590Z</time>
      </trkpt>
      <trkpt lat="45.43108" lon="5.46395">
        <ele>629</ele>
        <time>2011-04-28T15:30:36.590Z</time>
      </trkpt>
      <trkpt lat="45.431" lon="5.46476">
        <ele>630.5</ele>
        <time>2011-04-28T15:30:50.590Z</time>
      </trkpt>
      <trkpt lat="45.43112" lon="5.4653">
        <ele>631</ele>
        <time>2011-04-28T15:31:03.590Z</time>
      </trkpt>
      <trkpt lat="45.43142" lon="5.46608">
        <ele>632</ele>
        <time>2011-04-28T15:31:22.590Z</time>
      </trkpt>
      <trkpt lat="45.4319" lon="5.46705">
        <ele>633.5</ele>
        <time>2011-04-28T15:31:48.590Z</time>
      </trkpt>
      <trkpt lat="45.43219" lon="5.46756">
        <ele>634</ele>
        <time>2011-04-28T15:32:02.590Z</time>
      </trkpt>
      <trkpt lat="45.43237" lon="5.46804">
        <ele>634.5</ele>
        <time>2011-04-28T15:32:13.590Z</time>
      </trkpt>
      <trkpt lat="45.43257" lon="5.46901">
        <ele>635.5</ele>
        <time>2011-04-28T15:32:37.590Z</time>
      </trkpt>
      <trkpt lat="45.43276" lon="5.4696">
        <ele>636.5</ele>
        <time>2011-04-28T15:32:51.590Z</time>
      </trkpt>
      <trkpt lat="45.43295" lon="5.47136">
        <ele>633.5</ele>
        <time>2011-04-28T15:33:21.590Z</time>
      </trkpt>
      <trkpt lat="45.4331" lon="5.47169">
        <ele>634.5</ele>
        <time>2011-04-28T15:33:26.590Z</time>
      </trkpt>
      <trkpt lat="45.43362" lon="5.47223">
        <ele>632.5</ele>
        <time>2011-04-28T15:33:35.590Z</time>
      </trkpt>
      <trkpt lat="45.43385" lon="5.47275">
        <ele>632</ele>
        <time>2011-04-28T15:33:42.590Z</time>
      </trkpt>
      <trkpt lat="45.43412" lon="5.47359">
        <ele>631.5</ele>
        <time>2011-04-28T15:33:56.590Z</time>
      </trkpt>
      <trkpt lat="45.43487" lon="5.47518">
        <ele>634.5</ele>
        <time>2011-04-28T15:35:35.590Z</time>
      </trkpt>
      <trkpt lat="45.43485" lon="5.47521">
        <ele>635</ele>
        <time>2011-04-28T15:35:45.590Z</time>
      </trkpt>
      <trkpt lat="45.43475" lon="5.47521">
        <ele>634.5</ele>
        <time>2011-04-28T15:35:51.590Z</time>
      </trkpt>
      <trkpt lat="45.43405" lon="5.47494">
        <ele>630</ele>
        <time>2011-04-28T15:36:12.590Z</time>
      </trkpt>
      <trkpt lat="45.4337" lon="5.47469">
        <ele>629</ele>
        <time>2011-04-28T15:36:20.590Z</time>
      </trkpt>
      <trkpt lat="45.43242" lon="5.47335">
        <ele>626</ele>
        <time>2011-04-28T15:37:12.590Z</time>
      </trkpt>
      <trkpt lat="45.43191" lon="5.47274">
        <ele>623</ele>
        <time>2011-04-28T15:37:27.590Z</time>
      </trkpt>
      <trkpt lat="45.43177" lon="5.47266">
        <ele>622.5</ele>
        <time>2011-04-28T15:37:30.590Z</time>
      </trkpt>
      <trkpt lat="45.43119" lon="5.47252">
        <ele>621</ele>
        <time>2011-04-28T15:37:42.590Z</time>
      </trkpt>
      <trkpt lat="45.43067" lon="5.47233">
        <ele>619</ele>
        <time>2011-04-28T15:37:52.590Z</time>
      </trkpt>
      <trkpt lat="45.42973" lon="5.47179">
        <ele>617</ele>
        <time>2011-04-28T15:38:10.590Z</time>
      </trkpt>
      <trkpt lat="45.42922" lon="5.47159">
        <ele>616.5</ele>
        <time>2011-04-28T15:38:19.590Z</time>
      </trkpt>
      <trkpt lat="45.42854" lon="5.47122">
        <ele>614.5</ele>
        <time>2011-04-28T15:38:59.590Z</time>
      </trkpt>
      <trkpt lat="45.42844" lon="5.47123">
        <ele>614.5</ele>
        <time>2011-04-28T15:39:02.590Z</time>
      </trkpt>
      <trkpt lat="45.42803" lon="5.47149">
        <ele>613</ele>
        <time>2011-04-28T15:39:11.590Z</time>
      </trkpt>
      <trkpt lat="45.42776" lon="5.47159">
        <ele>611.5</ele>
        <time>2011-04-28T15:39:16.590Z</time>
      </trkpt>
      <trkpt lat="45.42751" lon="5.47164">
        <ele>611</ele>
        <time>2011-04-28T15:39:20.590Z</time>
      </trkpt>
      <trkpt lat="45.42681" lon="5.47169">
        <ele>609</ele>
        <time>2011-04-28T15:39:32.590Z</time>
      </trkpt>
      <trkpt lat="45.42659" lon="5.47173">
        <ele>608.5</ele>
        <time>2011-04-28T15:39:37.590Z</time>
      </trkpt>
      <trkpt lat="45.42619" lon="5.4717">
        <ele>608</ele>
        <time>2011-04-28T15:39:48.590Z</time>
      </trkpt>
      <trkpt lat="45.42585" lon="5.47156">
        <ele>607.5</ele>
        <time>2011-04-28T15:39:55.590Z</time>
      </trkpt>
      <trkpt lat="45.42552" lon="5.47131">
        <ele>606.5</ele>
        <time>2011-04-28T15:40:02.590Z</time>
      </trkpt>
      <trkpt lat="45.4253" lon="5.47128">
        <ele>606</ele>
        <time>2011-04-28T15:40:06.590Z</time>
      </trkpt>
      <trkpt lat="45.42481" lon="5.47143">
        <ele>604.5</ele>
        <time>2011-04-28T15:40:14.590Z</time>
      </trkpt>
      <trkpt lat="45.42387" lon="5.4718">
        <ele>602</ele>
        <time>2011-04-28T15:40:28.590Z</time>
      </trkpt>
      <trkpt lat="45.42223" lon="5.47235">
        <ele>604</ele>
        <time>2011-04-28T15:41:03.590Z</time>
      </trkpt>
      <trkpt lat="45.42198" lon="5.47251">
        <ele>607.5</ele>
        <time>2011-04-28T15:41:13.590Z</time>
      </trkpt>
      <trkpt lat="45.42193" lon="5.47263">
        <ele>607.5</ele>
        <time>2011-04-28T15:41:17.590Z</time>
      </trkpt>
      <trkpt lat="45.42156" lon="5.47281">
        <ele>610</ele>
        <time>2011-04-28T15:41:32.590Z</time>
      </trkpt>
      <trkpt lat="45.4214" lon="5.47292">
        <ele>611.5</ele>
        <time>2011-04-28T15:41:39.590Z</time>
      </trkpt>
      <trkpt lat="45.42106" lon="5.47327">
        <ele>616</ele>
        <time>2011-04-28T15:41:59.590Z</time>
      </trkpt>
      <trkpt lat="45.42103" lon="5.47346">
        <ele>618</ele>
        <time>2011-04-28T15:42:06.590Z</time>
      </trkpt>
      <trkpt lat="45.42106" lon="5.47361">
        <ele>618</ele>
        <time>2011-04-28T15:42:10.590Z</time>
      </trkpt>
      <trkpt lat="45.42116" lon="5.47384">
        <ele>616.5</ele>
        <time>2011-04-28T15:42:15.590Z</time>
      </trkpt>
      <trkpt lat="45.42145" lon="5.47428">
        <ele>616</ele>
        <time>2011-04-28T15:42:24.590Z</time>
      </trkpt>
      <trkpt lat="45.42146" lon="5.4745">
        <ele>615.5</ele>
        <time>2011-04-28T15:42:28.590Z</time>
      </trkpt>
      <trkpt lat="45.42138" lon="5.47482">
        <ele>617</ele>
        <time>2011-04-28T15:42:37.590Z</time>
      </trkpt>
      <trkpt lat="45.42115" lon="5.47492">
        <ele>617</ele>
        <time>2011-04-28T15:42:45.590Z</time>
      </trkpt>
      <trkpt lat="45.42104" lon="5.47503">
        <ele>618</ele>
        <time>2011-04-28T15:42:49.590Z</time>
      </trkpt>
      <trkpt lat="45.42095" lon="5.47518">
        <ele>618.5</ele>
        <time>2011-04-28T15:42:53.590Z</time>
      </trkpt>
      <trkpt lat="45.42077" lon="5.47564">
        <ele>621.5</ele>
        <time>2011-04-28T15:43:04.590Z</time>
      </trkpt>
      <trkpt lat="45.42054" lon="5.4764">
        <ele>623.5</ele>
        <time>2011-04-28T15:43:22.590Z</time>
      </trkpt>
      <trkpt lat="45.42035" lon="5.47752">
        <ele>621</ele>
        <time>2011-04-28T15:43:46.590Z</time>
      </trkpt>
      <trkpt lat="45.42021" lon="5.47796">
        <ele>621</ele>
        <time>2011-04-28T15:43:57.590Z</time>
      </trkpt>
      <trkpt lat="45.41991" lon="5.47879">
        <ele>625</ele>
        <time>2011-04-28T15:44:19.590Z</time>
      </trkpt>
      <trkpt lat="45.41976" lon="5.47986">
        <ele>638</ele>
        <time>2011-04-28T15:44:46.590Z</time>
      </trkpt>
      <trkpt lat="45.41973" lon="5.47994">
        <ele>639</ele>
        <time>2011-04-28T15:44:48.590Z</time>
      </trkpt>
      <trkpt lat="45.41973" lon="5.48004">
        <ele>635.5</ele>
        <time>2011-04-28T15:44:50.590Z</time>
      </trkpt>
      <trkpt lat="45.41966" lon="5.4805">
        <ele>637.5</ele>
        <time>2011-04-28T15:45:01.590Z</time>
      </trkpt>
      <trkpt lat="45.41955" lon="5.48142">
        <ele>643</ele>
        <time>2011-04-28T15:45:24.590Z</time>
      </trkpt>
      <trkpt lat="45.41951" lon="5.48211">
        <ele>645</ele>
        <time>2011-04-28T15:45:41.590Z</time>
      </trkpt>
      <trkpt lat="45.41942" lon="5.48254">
        <ele>651.5</ele>
        <time>2011-04-28T15:45:53.590Z</time>
      </trkpt>
      <trkpt lat="45.41941" lon="5.48271">
        <ele>648.5</ele>
        <time>2011-04-28T15:45:57.590Z</time>
      </trkpt>
      <trkpt lat="45.41912" lon="5.48374">
        <ele>664</ele>
        <time>2011-04-28T15:46:27.590Z</time>
      </trkpt>
      <trkpt lat="45.41911" lon="5.4842">
        <ele>667.5</ele>
        <time>2011-04-28T15:46:40.590Z</time>
      </trkpt>
      <trkpt lat="45.41894" lon="5.4852">
        <ele>669</ele>
        <time>2011-04-28T15:47:07.590Z</time>
      </trkpt>
      <trkpt lat="45.41886" lon="5.48545">
        <ele>668</ele>
        <time>2011-04-28T15:47:14.590Z</time>
      </trkpt>
      <trkpt lat="45.41869" lon="5.48579">
        <ele>671.5</ele>
        <time>2011-04-28T15:47:25.590Z</time>
      </trkpt>
      <trkpt lat="45.41844" lon="5.48639">
        <ele>664</ele>
        <time>2011-04-28T15:47:41.590Z</time>
      </trkpt>
      <trkpt lat="45.41811" lon="5.48699">
        <ele>661</ele>
        <time>2011-04-28T15:48:00.590Z</time>
      </trkpt>
      <trkpt lat="45.41744" lon="5.4879">
        <ele>671.5</ele>
        <time>2011-04-28T15:48:34.590Z</time>
      </trkpt>
      <trkpt lat="45.41721" lon="5.48811">
        <ele>672</ele>
        <time>2011-04-28T15:48:43.590Z</time>
      </trkpt>
      <trkpt lat="45.41714" lon="5.48824">
        <ele>672.5</ele>
        <time>2011-04-28T15:48:47.590Z</time>
      </trkpt>
      <trkpt lat="45.41711" lon="5.48845">
        <ele>673</ele>
        <time>2011-04-28T15:48:52.590Z</time>
      </trkpt>
      <trkpt lat="45.41711" lon="5.48886">
        <ele>671.5</ele>
        <time>2011-04-28T15:49:01.590Z</time>
      </trkpt>
      <trkpt lat="45.41707" lon="5.48911">
        <ele>672.5</ele>
        <time>2011-04-28T15:49:07.590Z</time>
      </trkpt>
      <trkpt lat="45.41697" lon="5.48939">
        <ele>673</ele>
        <time>2011-04-28T15:49:15.590Z</time>
      </trkpt>
      <trkpt lat="45.41681" lon="5.48961">
        <ele>674</ele>
        <time>2011-04-28T15:49:23.590Z</time>
      </trkpt>
      <trkpt lat="45.41657" lon="5.48982">
        <ele>672.5</ele>
        <time>2011-04-28T15:49:32.590Z</time>
      </trkpt>
      <trkpt lat="45.41655" lon="5.48988">
        <ele>675.5</ele>
        <time>2011-04-28T15:49:34.590Z</time>
      </trkpt>
      <trkpt lat="45.41594" lon="5.49051">
        <ele>685</ele>
        <time>2011-04-28T15:49:59.590Z</time>
      </trkpt>
      <trkpt lat="45.41582" lon="5.49068">
        <ele>684.5</ele>
        <time>2011-04-28T15:50:04.590Z</time>
      </trkpt>
      <trkpt lat="45.4155" lon="5.49145">
        <ele>693</ele>
        <time>2011-04-28T15:50:22.590Z</time>
      </trkpt>
      <trkpt lat="45.41551" lon="5.49159">
        <ele>693</ele>
        <time>2011-04-28T15:50:25.590Z</time>
      </trkpt>
      <trkpt lat="45.41582" lon="5.49247">
        <ele>697.5</ele>
        <time>2011-04-28T15:50:43.590Z</time>
      </trkpt>
      <trkpt lat="45.41586" lon="5.49249">
        <ele>697.5</ele>
        <time>2011-04-28T15:50:45.590Z</time>
      </trkpt>
      <trkpt lat="45.41591" lon="5.49247">
        <ele>698</ele>
        <time>2011-04-28T15:50:47.590Z</time>
      </trkpt>
      <trkpt lat="45.41649" lon="5.49188">
        <ele>704</ele>
        <time>2011-04-28T15:51:18.590Z</time>
      </trkpt>
      <trkpt lat="45.41664" lon="5.49159">
        <ele>707</ele>
        <time>2011-04-28T15:51:31.590Z</time>
      </trkpt>
      <trkpt lat="45.41678" lon="5.49143">
        <ele>709</ele>
        <time>2011-04-28T15:51:41.590Z</time>
      </trkpt>
      <trkpt lat="45.41717" lon="5.49081">
        <ele>723.5</ele>
        <time>2011-04-28T15:52:17.590Z</time>
      </trkpt>
      <trkpt lat="45.41724" lon="5.49062">
        <ele>725.5</ele>
        <time>2011-04-28T15:52:25.590Z</time>
      </trkpt>
      <trkpt lat="45.41738" lon="5.4904">
        <ele>728</ele>
        <time>2011-04-28T15:52:36.590Z</time>
      </trkpt>
      <trkpt lat="45.4175" lon="5.49027">
        <ele>729.5</ele>
        <time>2011-04-28T15:52:44.590Z</time>
      </trkpt>
      <trkpt lat="45.41758" lon="5.49029">
        <ele>729.5</ele>
        <time>2011-04-28T15:52:48.590Z</time>
      </trkpt>
      <trkpt lat="45.41762" lon="5.49038">
        <ele>730</ele>
        <time>2011-04-28T15:52:52.590Z</time>
      </trkpt>
      <trkpt lat="45.41768" lon="5.49106">
        <ele>735.5</ele>
        <time>2011-04-28T15:53:16.650Z</time>
      </trkpt>
      <trkpt lat="45.41786" lon="5.4924">
        <ele>744</ele>
        <time>2011-04-28T15:53:55.650Z</time>
      </trkpt>
      <trkpt lat="45.41822" lon="5.49356">
        <ele>752</ele>
        <time>2011-04-28T15:54:36.240Z</time>
      </trkpt>
      <trkpt lat="45.41822" lon="5.49372">
        <ele>753</ele>
        <time>2011-04-28T15:54:41.260Z</time>
      </trkpt>
      <trkpt lat="45.41812" lon="5.49414">
        <ele>755.5</ele>
        <time>2011-04-28T15:54:55.230Z</time>
      </trkpt>
      <trkpt lat="45.41798" lon="5.49448">
        <ele>759</ele>
        <time>2011-04-28T15:55:09.230Z</time>
      </trkpt>
      <trkpt lat="45.41792" lon="5.49472">
        <ele>761</ele>
        <time>2011-04-28T15:55:17.230Z</time>
      </trkpt>
      <trkpt lat="45.41782" lon="5.49565">
        <ele>768.5</ele>
        <time>2011-04-28T15:55:51.230Z</time>
      </trkpt>
      <trkpt lat="45.41763" lon="5.49695">
        <ele>777.5</ele>
        <time>2011-04-28T15:56:41.220Z</time>
      </trkpt>
      <trkpt lat="45.4175" lon="5.49725">
        <ele>777.5</ele>
        <time>2011-04-28T15:56:55.220Z</time>
      </trkpt>
      <trkpt lat="45.41642" lon="5.49825">
        <ele>791.5</ele>
        <time>2011-04-28T15:58:12.210Z</time>
      </trkpt>
      <trkpt lat="45.41632" lon="5.49831">
        <ele>793.5</ele>
        <time>2011-04-28T15:58:19.210Z</time>
      </trkpt>
      <trkpt lat="45.41598" lon="5.49865">
        <ele>799.5</ele>
        <time>2011-04-28T15:58:45.210Z</time>
      </trkpt>
      <trkpt lat="45.41563" lon="5.49926">
        <ele>804.5</ele>
        <time>2011-04-28T15:59:18.210Z</time>
      </trkpt>
      <trkpt lat="45.41541" lon="5.49957">
        <ele>808</ele>
        <time>2011-04-28T15:59:34.210Z</time>
      </trkpt>
      <trkpt lat="45.41489" lon="5.50014">
        <ele>817</ele>
        <time>2011-04-28T16:00:11.210Z</time>
      </trkpt>
      <trkpt lat="45.41477" lon="5.50035">
        <ele>819.5</ele>
        <time>2011-04-28T16:00:21.210Z</time>
      </trkpt>
      <trkpt lat="45.41463" lon="5.50074">
        <ele>823.5</ele>
        <time>2011-04-28T16:00:35.200Z</time>
      </trkpt>
      <trkpt lat="45.4146" lon="5.50105">
        <ele>825.5</ele>
        <time>2011-04-28T16:00:44.200Z</time>
      </trkpt>
      <trkpt lat="45.41455" lon="5.50125">
        <ele>825.5</ele>
        <time>2011-04-28T16:00:50.220Z</time>
      </trkpt>
      <trkpt lat="45.41438" lon="5.50154">
        <ele>826.5</ele>
        <time>2011-04-28T16:01:00.200Z</time>
      </trkpt>
      <trkpt lat="45.41421" lon="5.50179">
        <ele>830.5</ele>
        <time>2011-04-28T16:01:10.210Z</time>
      </trkpt>
      <trkpt lat="45.41405" lon="5.50208">
        <ele>832</ele>
        <time>2011-04-28T16:01:21.200Z</time>
      </trkpt>
      <trkpt lat="45.41365" lon="5.50267">
        <ele>840</ele>
        <time>2011-04-28T16:01:44.210Z</time>
      </trkpt>
      <trkpt lat="45.41349" lon="5.50299">
        <ele>846</ele>
        <time>2011-04-28T16:01:55.200Z</time>
      </trkpt>
      <trkpt lat="45.41339" lon="5.50331">
        <ele>847.5</ele>
        <time>2011-04-28T16:02:14.200Z</time>
      </trkpt>
      <trkpt lat="45.41341" lon="5.50331">
        <ele>848</ele>
        <time>2011-04-28T16:02:36.210Z</time>
      </trkpt>
      <trkpt lat="45.41333" lon="5.50347">
        <ele>842.5</ele>
        <time>2011-04-28T16:04:24.210Z</time>
      </trkpt>
      <trkpt lat="45.41333" lon="5.5035">
        <ele>839</ele>
        <time>2011-04-28T16:05:02.180Z</time>
      </trkpt>
      <trkpt lat="45.41359" lon="5.50352">
        <ele>847</ele>
        <time>2011-04-28T16:06:28.180Z</time>
      </trkpt>
      <trkpt lat="45.41375" lon="5.50375">
        <ele>851.5</ele>
        <time>2011-04-28T16:06:47.170Z</time>
      </trkpt>
      <trkpt lat="45.41377" lon="5.50392">
        <ele>853.5</ele>
        <time>2011-04-28T16:06:57.180Z</time>
      </trkpt>
      <trkpt lat="45.41393" lon="5.50395">
        <ele>858.5</ele>
        <time>2011-04-28T16:07:04.170Z</time>
      </trkpt>
      <trkpt lat="45.41413" lon="5.50387">
        <ele>860</ele>
        <time>2011-04-28T16:07:09.170Z</time>
      </trkpt>
      <trkpt lat="45.41421" lon="5.50395">
        <ele>859.5</ele>
        <time>2011-04-28T16:07:11.170Z</time>
      </trkpt>
      <trkpt lat="45.41432" lon="5.50416">
        <ele>857.5</ele>
        <time>2011-04-28T16:07:15.170Z</time>
      </trkpt>
      <trkpt lat="45.41441" lon="5.50415">
        <ele>857.5</ele>
        <time>2011-04-28T16:07:17.170Z</time>
      </trkpt>
      <trkpt lat="45.41485" lon="5.50473">
        <ele>859</ele>
        <time>2011-04-28T16:07:57.160Z</time>
      </trkpt>
      <trkpt lat="45.41485" lon="5.50431">
        <ele>851.5</ele>
        <time>2011-04-28T16:08:13.160Z</time>
      </trkpt>
      <trkpt lat="45.41488" lon="5.50393">
        <ele>844.5</ele>
        <time>2011-04-28T16:08:18.150Z</time>
      </trkpt>
      <trkpt lat="45.41507" lon="5.50318">
        <ele>837</ele>
        <time>2011-04-28T16:08:26.160Z</time>
      </trkpt>
      <trkpt lat="45.41527" lon="5.5028">
        <ele>839.5</ele>
        <time>2011-04-28T16:08:31.160Z</time>
      </trkpt>
      <trkpt lat="45.41549" lon="5.50248">
        <ele>839.5</ele>
        <time>2011-04-28T16:08:36.160Z</time>
      </trkpt>
      <trkpt lat="45.41575" lon="5.502">
        <ele>828</ele>
        <time>2011-04-28T16:08:52.190Z</time>
      </trkpt>
      <trkpt lat="45.4158" lon="5.50197">
        <ele>827</ele>
        <time>2011-04-28T16:09:00.160Z</time>
      </trkpt>
      <trkpt lat="45.41597" lon="5.50164">
        <ele>826.5</ele>
        <time>2011-04-28T16:09:13.150Z</time>
      </trkpt>
      <trkpt lat="45.4161" lon="5.5015">
        <ele>824.5</ele>
        <time>2011-04-28T16:09:18.150Z</time>
      </trkpt>
      <trkpt lat="45.41629" lon="5.50136">
        <ele>829</ele>
        <time>2011-04-28T16:09:26.150Z</time>
      </trkpt>
      <trkpt lat="45.41733" lon="5.50173">
        <ele>787.5</ele>
        <time>2011-04-28T16:09:48.160Z</time>
      </trkpt>
      <trkpt lat="45.41761" lon="5.50204">
        <ele>779</ele>
        <time>2011-04-28T16:09:56.150Z</time>
      </trkpt>
      <trkpt lat="45.41778" lon="5.50284">
        <ele>769.5</ele>
        <time>2011-04-28T16:10:14.140Z</time>
      </trkpt>
      <trkpt lat="45.41777" lon="5.50302">
        <ele>767</ele>
        <time>2011-04-28T16:10:17.140Z</time>
      </trkpt>
      <trkpt lat="45.41771" lon="5.50322">
        <ele>763.5</ele>
        <time>2011-04-28T16:10:20.140Z</time>
      </trkpt>
      <trkpt lat="45.41771" lon="5.50339">
        <ele>763.5</ele>
        <time>2011-04-28T16:10:22.150Z</time>
      </trkpt>
      <trkpt lat="45.41781" lon="5.50373">
        <ele>757.5</ele>
        <time>2011-04-28T16:10:26.150Z</time>
      </trkpt>
      <trkpt lat="45.4187" lon="5.5047">
        <ele>753</ele>
        <time>2011-04-28T16:10:41.140Z</time>
      </trkpt>
      <trkpt lat="45.41909" lon="5.50501">
        <ele>747</ele>
        <time>2011-04-28T16:10:48.140Z</time>
      </trkpt>
      <trkpt lat="45.41946" lon="5.50541">
        <ele>736.5</ele>
        <time>2011-04-28T16:10:55.140Z</time>
      </trkpt>
      <trkpt lat="45.41957" lon="5.5055">
        <ele>736</ele>
        <time>2011-04-28T16:10:57.140Z</time>
      </trkpt>
      <trkpt lat="45.41992" lon="5.50597">
        <ele>728.5</ele>
        <time>2011-04-28T16:11:03.140Z</time>
      </trkpt>
      <trkpt lat="45.42021" lon="5.50641">
        <ele>719</ele>
        <time>2011-04-28T16:11:09.140Z</time>
      </trkpt>
      <trkpt lat="45.4204" lon="5.50685">
        <ele>714</ele>
        <time>2011-04-28T16:11:14.140Z</time>
      </trkpt>
      <trkpt lat="45.42066" lon="5.50776">
        <ele>707.5</ele>
        <time>2011-04-28T16:11:25.140Z</time>
      </trkpt>
      <trkpt lat="45.42073" lon="5.5079">
        <ele>707</ele>
        <time>2011-04-28T16:11:28.140Z</time>
      </trkpt>
      <trkpt lat="45.42093" lon="5.50816">
        <ele>706</ele>
        <time>2011-04-28T16:11:34.140Z</time>
      </trkpt>
      <trkpt lat="45.42103" lon="5.50824">
        <ele>705</ele>
        <time>2011-04-28T16:11:36.140Z</time>
      </trkpt>
      <trkpt lat="45.42121" lon="5.5083">
        <ele>702.5</ele>
        <time>2011-04-28T16:11:40.140Z</time>
      </trkpt>
      <trkpt lat="45.42141" lon="5.50819">
        <ele>700.5</ele>
        <time>2011-04-28T16:11:44.140Z</time>
      </trkpt>
      <trkpt lat="45.42164" lon="5.50794">
        <ele>698</ele>
        <time>2011-04-28T16:11:48.140Z</time>
      </trkpt>
      <trkpt lat="45.42186" lon="5.50763">
        <ele>695.5</ele>
        <time>2011-04-28T16:11:52.140Z</time>
      </trkpt>
      <trkpt lat="45.42205" lon="5.50728">
        <ele>693.5</ele>
        <time>2011-04-28T16:11:57.140Z</time>
      </trkpt>
      <trkpt lat="45.42214" lon="5.50685">
        <ele>689</ele>
        <time>2011-04-28T16:12:04.140Z</time>
      </trkpt>
      <trkpt lat="45.4222" lon="5.50637">
        <ele>683</ele>
        <time>2011-04-28T16:12:11.130Z</time>
      </trkpt>
      <trkpt lat="45.4223" lon="5.5059">
        <ele>679.5</ele>
        <time>2011-04-28T16:12:17.140Z</time>
      </trkpt>
      <trkpt lat="45.42241" lon="5.50497">
        <ele>672.5</ele>
        <time>2011-04-28T16:12:27.150Z</time>
      </trkpt>
      <trkpt lat="45.42238" lon="5.50458">
        <ele>671.5</ele>
        <time>2011-04-28T16:12:31.130Z</time>
      </trkpt>
      <trkpt lat="45.42225" lon="5.50395">
        <ele>669</ele>
        <time>2011-04-28T16:12:39.130Z</time>
      </trkpt>
      <trkpt lat="45.42219" lon="5.5038">
        <ele>670</ele>
        <time>2011-04-28T16:12:42.140Z</time>
      </trkpt>
      <trkpt lat="45.42204" lon="5.50314">
        <ele>667.5</ele>
        <time>2011-04-28T16:12:52.130Z</time>
      </trkpt>
      <trkpt lat="45.42206" lon="5.50259">
        <ele>664.5</ele>
        <time>2011-04-28T16:12:58.140Z</time>
      </trkpt>
      <trkpt lat="45.42233" lon="5.50083">
        <ele>656.5</ele>
        <time>2011-04-28T16:13:14.130Z</time>
      </trkpt>
      <trkpt lat="45.42261" lon="5.49978">
        <ele>654</ele>
        <time>2011-04-28T16:13:24.130Z</time>
      </trkpt>
      <trkpt lat="45.42282" lon="5.49865">
        <ele>650.5</ele>
        <time>2011-04-28T16:13:35.130Z</time>
      </trkpt>
      <trkpt lat="45.42287" lon="5.49797">
        <ele>649.5</ele>
        <time>2011-04-28T16:13:42.120Z</time>
      </trkpt>
      <trkpt lat="45.42294" lon="5.49758">
        <ele>648</ele>
        <time>2011-04-28T16:13:46.130Z</time>
      </trkpt>
      <trkpt lat="45.42311" lon="5.49712">
        <ele>650</ele>
        <time>2011-04-28T16:13:51.130Z</time>
      </trkpt>
      <trkpt lat="45.42354" lon="5.49656">
        <ele>646.5</ele>
        <time>2011-04-28T16:14:03.120Z</time>
      </trkpt>
      <trkpt lat="45.42361" lon="5.49621">
        <ele>646</ele>
        <time>2011-04-28T16:14:11.130Z</time>
      </trkpt>
      <trkpt lat="45.42371" lon="5.49514">
        <ele>641.5</ele>
        <time>2011-04-28T16:14:27.120Z</time>
      </trkpt>
      <trkpt lat="45.42378" lon="5.49409">
        <ele>637.5</ele>
        <time>2011-04-28T16:14:40.120Z</time>
      </trkpt>
      <trkpt lat="45.42401" lon="5.49261">
        <ele>635</ele>
        <time>2011-04-28T16:14:57.120Z</time>
      </trkpt>
      <trkpt lat="45.42406" lon="5.49237">
        <ele>636</ele>
        <time>2011-04-28T16:15:00.280Z</time>
      </trkpt>
      <trkpt lat="45.42408" lon="5.49027">
        <ele>633</ele>
        <time>2011-04-28T16:15:26.110Z</time>
      </trkpt>
      <trkpt lat="45.42405" lon="5.48952">
        <ele>631.5</ele>
        <time>2011-04-28T16:15:35.130Z</time>
      </trkpt>
      <trkpt lat="45.4242" lon="5.48813">
        <ele>630.5</ele>
        <time>2011-04-28T16:15:52.120Z</time>
      </trkpt>
      <trkpt lat="45.42452" lon="5.48699">
        <ele>633</ele>
        <time>2011-04-28T16:16:06.100Z</time>
      </trkpt>
      <trkpt lat="45.42456" lon="5.48641">
        <ele>631</ele>
        <time>2011-04-28T16:16:13.110Z</time>
      </trkpt>
      <trkpt lat="45.42466" lon="5.48581">
        <ele>628</ele>
        <time>2011-04-28T16:16:20.110Z</time>
      </trkpt>
      <trkpt lat="45.42474" lon="5.48505">
        <ele>625</ele>
        <time>2011-04-28T16:16:29.100Z</time>
      </trkpt>
      <trkpt lat="45.42472" lon="5.4847">
        <ele>624</ele>
        <time>2011-04-28T16:16:33.100Z</time>
      </trkpt>
      <trkpt lat="45.42466" lon="5.48435">
        <ele>623</ele>
        <time>2011-04-28T16:16:37.100Z</time>
      </trkpt>
      <trkpt lat="45.4245" lon="5.48374">
        <ele>621</ele>
        <time>2011-04-28T16:16:44.110Z</time>
      </trkpt>
      <trkpt lat="45.42441" lon="5.48348">
        <ele>620.5</ele>
        <time>2011-04-28T16:16:47.100Z</time>
      </trkpt>
      <trkpt lat="45.42422" lon="5.4831">
        <ele>620.5</ele>
        <time>2011-04-28T16:16:52.100Z</time>
      </trkpt>
      <trkpt lat="45.42408" lon="5.48272">
        <ele>621</ele>
        <time>2011-04-28T16:16:57.100Z</time>
      </trkpt>
      <trkpt lat="45.42384" lon="5.48182">
        <ele>624.5</ele>
        <time>2011-04-28T16:17:13.100Z</time>
      </trkpt>
      <trkpt lat="45.42372" lon="5.48153">
        <ele>626</ele>
        <time>2011-04-28T16:17:20.100Z</time>
      </trkpt>
      <trkpt lat="45.42371" lon="5.48142">
        <ele>627</ele>
        <time>2011-04-28T16:17:24.100Z</time>
      </trkpt>
      <trkpt lat="45.42384" lon="5.48066">
        <ele>627</ele>
        <time>2011-04-28T16:17:41.900Z</time>
      </trkpt>
      <trkpt lat="45.42387" lon="5.48017">
        <ele>626.5</ele>
        <time>2011-04-28T16:17:50.100Z</time>
      </trkpt>
      <trkpt lat="45.42381" lon="5.47958">
        <ele>626</ele>
        <time>2011-04-28T16:18:00.900Z</time>
      </trkpt>
      <trkpt lat="45.4238" lon="5.47847">
        <ele>626</ele>
        <time>2011-04-28T16:18:17.800Z</time>
      </trkpt>
      <trkpt lat="45.42374" lon="5.47798">
        <ele>628</ele>
        <time>2011-04-28T16:18:25.800Z</time>
      </trkpt>
      <trkpt lat="45.4236" lon="5.47752">
        <ele>629.5</ele>
        <time>2011-04-28T16:18:35.800Z</time>
      </trkpt>
      <trkpt lat="45.42348" lon="5.47685">
        <ele>629</ele>
        <time>2011-04-28T16:18:48.800Z</time>
      </trkpt>
      <trkpt lat="45.42336" lon="5.47645">
        <ele>627.5</ele>
        <time>2011-04-28T16:18:56.900Z</time>
      </trkpt>
      <trkpt lat="45.42291" lon="5.47542">
        <ele>617.5</ele>
        <time>2011-04-28T16:19:11.800Z</time>
      </trkpt>
      <trkpt lat="45.42269" lon="5.47505">
        <ele>614</ele>
        <time>2011-04-28T16:19:17.900Z</time>
      </trkpt>
      <trkpt lat="45.42259" lon="5.47494">
        <ele>613</ele>
        <time>2011-04-28T16:19:19.800Z</time>
      </trkpt>
      <trkpt lat="45.42242" lon="5.47486">
        <ele>613</ele>
        <time>2011-04-28T16:19:22.800Z</time>
      </trkpt>
      <trkpt lat="45.42226" lon="5.47472">
        <ele>613</ele>
        <time>2011-04-28T16:19:27.800Z</time>
      </trkpt>
      <trkpt lat="45.42214" lon="5.4743">
        <ele>612</ele>
        <time>2011-04-28T16:19:37.800Z</time>
      </trkpt>
      <trkpt lat="45.42197" lon="5.47302">
        <ele>608</ele>
        <time>2011-04-28T16:19:53.800Z</time>
      </trkpt>
      <trkpt lat="45.42195" lon="5.47269">
        <ele>607</ele>
        <time>2011-04-28T16:19:57.700Z</time>
      </trkpt>
      <trkpt lat="45.42202" lon="5.47256">
        <ele>603</ele>
        <time>2011-04-28T16:19:59.900Z</time>
      </trkpt>
      <trkpt lat="45.42227" lon="5.47239">
        <ele>601</ele>
        <time>2011-04-28T16:20:04.700Z</time>
      </trkpt>
      <trkpt lat="45.42543" lon="5.47122">
        <ele>607</ele>
        <time>2011-04-28T16:21:17.600Z</time>
      </trkpt>
      <trkpt lat="45.42549" lon="5.47107">
        <ele>608.5</ele>
        <time>2011-04-28T16:21:21.600Z</time>
      </trkpt>
      <trkpt lat="45.42549" lon="5.47064">
        <ele>612</ele>
        <time>2011-04-28T16:21:32.500Z</time>
      </trkpt>
      <trkpt lat="45.42557" lon="5.46954">
        <ele>610.5</ele>
        <time>2011-04-28T16:21:59.600Z</time>
      </trkpt>
      <trkpt lat="45.42558" lon="5.46895">
        <ele>609</ele>
        <time>2011-04-28T16:22:12.500Z</time>
      </trkpt>
      <trkpt lat="45.42566" lon="5.46884">
        <ele>609</ele>
        <time>2011-04-28T16:22:15.500Z</time>
      </trkpt>
      <trkpt lat="45.42578" lon="5.46876">
        <ele>610</ele>
        <time>2011-04-28T16:22:19.500Z</time>
      </trkpt>
      <trkpt lat="45.42588" lon="5.46874">
        <ele>610</ele>
        <time>2011-04-28T16:22:24.500Z</time>
      </trkpt>
      <trkpt lat="45.42589" lon="5.46877">
        <ele>610.5</ele>
        <time>2011-04-28T16:22:26.500Z</time>
      </trkpt>
      <trkpt lat="45.42586" lon="5.46876">
        <ele>611.5</ele>
        <time>2011-04-28T16:23:08.970Z</time>
      </trkpt>
    </trkseg>
  </trk>
</gpx>